<?xml version="1.0" encoding="UTF-8" standalone="no" ?>
<gpx xmlns="http://www.topografix.com/GPX/1/1" xmlns:xsi="http://www.w3.org/2001/XMLSchema-instance" xsi:schemaLocation="http://www.topografix.com/GPX/1/1 http://www.topografix.com/GPX/1/1/gpx.xsd" version="1.1" creator="VisuGPX - https://www.visugpx.com">
  <metadata>
    <name>tour du mont de vannes retour par fresse melisey route</name>
  </metadata>
  <trk>
    <name><![CDATA[tour du mont de vannes retour par fresse melisey route_1]]></name>
    <trkseg>
      <trkpt lat="47.69692" lon="6.61276">
        <ele>332.9</ele>
        <time>2022-09-04T07:21:02.000Z</time>
      </trkpt>
      <trkpt lat="47.69698" lon="6.61268">
        <ele>332.6</ele>
        <time>2022-09-04T07:21:11.000Z</time>
      </trkpt>
      <trkpt lat="47.69696" lon="6.61285">
        <ele>333</ele>
        <time>2022-09-04T07:21:34.000Z</time>
      </trkpt>
      <trkpt lat="47.69684" lon="6.61277">
        <ele>332.6</ele>
        <time>2022-09-04T07:21:45.000Z</time>
      </trkpt>
      <trkpt lat="47.69675" lon="6.61275">
        <ele>332.3</ele>
        <time>2022-09-04T07:21:54.000Z</time>
      </trkpt>
      <trkpt lat="47.69671" lon="6.61262">
        <ele>332.1</ele>
        <time>2022-09-04T07:22:07.000Z</time>
      </trkpt>
      <trkpt lat="47.69658" lon="6.61183">
        <ele>332</ele>
        <time>2022-09-04T07:22:24.000Z</time>
      </trkpt>
      <trkpt lat="47.69654" lon="6.61115">
        <ele>332</ele>
        <time>2022-09-04T07:22:35.000Z</time>
      </trkpt>
      <trkpt lat="47.69649" lon="6.61089">
        <ele>331.2</ele>
        <time>2022-09-04T07:22:39.000Z</time>
      </trkpt>
      <trkpt lat="47.6958" lon="6.60896">
        <ele>330</ele>
        <time>2022-09-04T07:23:10.000Z</time>
      </trkpt>
      <trkpt lat="47.69558" lon="6.60789">
        <ele>329</ele>
        <time>2022-09-04T07:23:25.000Z</time>
      </trkpt>
      <trkpt lat="47.69556" lon="6.60761">
        <ele>329</ele>
        <time>2022-09-04T07:23:29.000Z</time>
      </trkpt>
      <trkpt lat="47.69559" lon="6.60745">
        <ele>329.1</ele>
        <time>2022-09-04T07:23:32.000Z</time>
      </trkpt>
      <trkpt lat="47.69567" lon="6.60734">
        <ele>329.2</ele>
        <time>2022-09-04T07:23:35.000Z</time>
      </trkpt>
      <trkpt lat="47.69579" lon="6.6073">
        <ele>329.2</ele>
        <time>2022-09-04T07:23:38.000Z</time>
      </trkpt>
      <trkpt lat="47.69716" lon="6.60711">
        <ele>330</ele>
        <time>2022-09-04T07:24:07.000Z</time>
      </trkpt>
      <trkpt lat="47.69749" lon="6.6071">
        <ele>330</ele>
        <time>2022-09-04T07:24:14.000Z</time>
      </trkpt>
      <trkpt lat="47.69821" lon="6.60716">
        <ele>330</ele>
        <time>2022-09-04T07:24:29.000Z</time>
      </trkpt>
      <trkpt lat="47.6984" lon="6.60715">
        <ele>330.4</ele>
        <time>2022-09-04T07:24:33.000Z</time>
      </trkpt>
      <trkpt lat="47.69923" lon="6.60681">
        <ele>333.5</ele>
        <time>2022-09-04T07:24:53.000Z</time>
      </trkpt>
      <trkpt lat="47.69937" lon="6.60653">
        <ele>332.5</ele>
        <time>2022-09-04T07:24:59.000Z</time>
      </trkpt>
      <trkpt lat="47.69991" lon="6.60474">
        <ele>329.1</ele>
        <time>2022-09-04T07:25:20.000Z</time>
      </trkpt>
      <trkpt lat="47.70032" lon="6.60307">
        <ele>330</ele>
        <time>2022-09-04T07:25:42.000Z</time>
      </trkpt>
      <trkpt lat="47.70041" lon="6.60258">
        <ele>333.7</ele>
        <time>2022-09-04T07:25:49.000Z</time>
      </trkpt>
      <trkpt lat="47.70042" lon="6.60226">
        <ele>332.7</ele>
        <time>2022-09-04T07:25:54.000Z</time>
      </trkpt>
      <trkpt lat="47.70038" lon="6.60199">
        <ele>334.2</ele>
        <time>2022-09-04T07:25:59.000Z</time>
      </trkpt>
      <trkpt lat="47.70009" lon="6.60114">
        <ele>340</ele>
        <time>2022-09-04T07:26:19.000Z</time>
      </trkpt>
      <trkpt lat="47.70002" lon="6.60082">
        <ele>342.1</ele>
        <time>2022-09-04T07:26:27.000Z</time>
      </trkpt>
      <trkpt lat="47.70001" lon="6.60037">
        <ele>343.7</ele>
        <time>2022-09-04T07:26:39.000Z</time>
      </trkpt>
      <trkpt lat="47.70006" lon="6.60012">
        <ele>344.9</ele>
        <time>2022-09-04T07:26:46.000Z</time>
      </trkpt>
      <trkpt lat="47.70019" lon="6.60001">
        <ele>345.7</ele>
        <time>2022-09-04T07:26:52.000Z</time>
      </trkpt>
      <trkpt lat="47.70067" lon="6.59985">
        <ele>347.5</ele>
        <time>2022-09-04T07:27:10.000Z</time>
      </trkpt>
      <trkpt lat="47.70124" lon="6.59985">
        <ele>349.9</ele>
        <time>2022-09-04T07:27:31.000Z</time>
      </trkpt>
      <trkpt lat="47.70164" lon="6.59976">
        <ele>353.9</ele>
        <time>2022-09-04T07:27:47.000Z</time>
      </trkpt>
      <trkpt lat="47.70221" lon="6.59969">
        <ele>359.7</ele>
        <time>2022-09-04T07:28:13.000Z</time>
      </trkpt>
      <trkpt lat="47.70233" lon="6.5996">
        <ele>360.9</ele>
        <time>2022-09-04T07:28:20.000Z</time>
      </trkpt>
      <trkpt lat="47.70277" lon="6.59906">
        <ele>364.5</ele>
        <time>2022-09-04T07:28:47.000Z</time>
      </trkpt>
      <trkpt lat="47.70291" lon="6.59894">
        <ele>365.2</ele>
        <time>2022-09-04T07:28:55.000Z</time>
      </trkpt>
      <trkpt lat="47.70351" lon="6.59861">
        <ele>367.6</ele>
        <time>2022-09-04T07:29:27.000Z</time>
      </trkpt>
      <trkpt lat="47.70381" lon="6.59857">
        <ele>369.2</ele>
        <time>2022-09-04T07:29:40.000Z</time>
      </trkpt>
      <trkpt lat="47.70392" lon="6.59863">
        <ele>370.1</ele>
        <time>2022-09-04T07:29:46.000Z</time>
      </trkpt>
      <trkpt lat="47.70414" lon="6.59899">
        <ele>372.6</ele>
        <time>2022-09-04T07:30:03.000Z</time>
      </trkpt>
      <trkpt lat="47.70434" lon="6.59922">
        <ele>375.1</ele>
        <time>2022-09-04T07:30:17.000Z</time>
      </trkpt>
      <trkpt lat="47.70463" lon="6.59976">
        <ele>379.8</ele>
        <time>2022-09-04T07:30:42.000Z</time>
      </trkpt>
      <trkpt lat="47.705" lon="6.60012">
        <ele>381.4</ele>
        <time>2022-09-04T07:31:04.000Z</time>
      </trkpt>
      <trkpt lat="47.70523" lon="6.60028">
        <ele>382.8</ele>
        <time>2022-09-04T07:31:18.000Z</time>
      </trkpt>
      <trkpt lat="47.70564" lon="6.60043">
        <ele>384.7</ele>
        <time>2022-09-04T07:31:35.000Z</time>
      </trkpt>
      <trkpt lat="47.70635" lon="6.60084">
        <ele>388</ele>
        <time>2022-09-04T07:32:02.000Z</time>
      </trkpt>
      <trkpt lat="47.70716" lon="6.60089">
        <ele>384.3</ele>
        <time>2022-09-04T07:32:22.000Z</time>
      </trkpt>
      <trkpt lat="47.70843" lon="6.60144">
        <ele>386.7</ele>
        <time>2022-09-04T07:32:52.000Z</time>
      </trkpt>
      <trkpt lat="47.7086" lon="6.60143">
        <ele>388.6</ele>
        <time>2022-09-04T07:32:58.000Z</time>
      </trkpt>
      <trkpt lat="47.70913" lon="6.60126">
        <ele>393.1</ele>
        <time>2022-09-04T07:33:20.000Z</time>
      </trkpt>
      <trkpt lat="47.70926" lon="6.60127">
        <ele>394.6</ele>
        <time>2022-09-04T07:33:28.000Z</time>
      </trkpt>
      <trkpt lat="47.70944" lon="6.60137">
        <ele>396.9</ele>
        <time>2022-09-04T07:33:37.000Z</time>
      </trkpt>
      <trkpt lat="47.70984" lon="6.6018">
        <ele>401.9</ele>
        <time>2022-09-04T07:33:58.000Z</time>
      </trkpt>
      <trkpt lat="47.71013" lon="6.60223">
        <ele>407.8</ele>
        <time>2022-09-04T07:34:22.000Z</time>
      </trkpt>
      <trkpt lat="47.71075" lon="6.60249">
        <ele>413.3</ele>
        <time>2022-09-04T07:35:03.000Z</time>
      </trkpt>
      <trkpt lat="47.71102" lon="6.60252">
        <ele>413.6</ele>
        <time>2022-09-04T07:35:14.000Z</time>
      </trkpt>
      <trkpt lat="47.71126" lon="6.60247">
        <ele>414.5</ele>
        <time>2022-09-04T07:35:23.000Z</time>
      </trkpt>
      <trkpt lat="47.71187" lon="6.602">
        <ele>417.1</ele>
        <time>2022-09-04T07:35:46.000Z</time>
      </trkpt>
      <trkpt lat="47.71222" lon="6.60186">
        <ele>420.1</ele>
        <time>2022-09-04T07:36:01.000Z</time>
      </trkpt>
      <trkpt lat="47.71295" lon="6.60176">
        <ele>423.8</ele>
        <time>2022-09-04T07:36:27.000Z</time>
      </trkpt>
      <trkpt lat="47.71429" lon="6.6019">
        <ele>426</ele>
        <time>2022-09-04T07:37:15.000Z</time>
      </trkpt>
      <trkpt lat="47.71457" lon="6.6022">
        <ele>426.6</ele>
        <time>2022-09-04T07:37:23.000Z</time>
      </trkpt>
      <trkpt lat="47.71485" lon="6.60265">
        <ele>422.2</ele>
        <time>2022-09-04T07:37:30.000Z</time>
      </trkpt>
      <trkpt lat="47.7152" lon="6.60332">
        <ele>419.6</ele>
        <time>2022-09-04T07:37:42.000Z</time>
      </trkpt>
      <trkpt lat="47.71539" lon="6.60353">
        <ele>420.9</ele>
        <time>2022-09-04T07:37:48.000Z</time>
      </trkpt>
      <trkpt lat="47.71592" lon="6.60389">
        <ele>421.6</ele>
        <time>2022-09-04T07:38:02.000Z</time>
      </trkpt>
      <trkpt lat="47.71617" lon="6.604">
        <ele>423</ele>
        <time>2022-09-04T07:38:09.000Z</time>
      </trkpt>
      <trkpt lat="47.71677" lon="6.60407">
        <ele>427.9</ele>
        <time>2022-09-04T07:38:31.000Z</time>
      </trkpt>
      <trkpt lat="47.71704" lon="6.60404">
        <ele>429.5</ele>
        <time>2022-09-04T07:38:43.000Z</time>
      </trkpt>
      <trkpt lat="47.71759" lon="6.60425">
        <ele>436.1</ele>
        <time>2022-09-04T07:39:13.000Z</time>
      </trkpt>
      <trkpt lat="47.71798" lon="6.6043">
        <ele>438.9</ele>
        <time>2022-09-04T07:39:36.000Z</time>
      </trkpt>
      <trkpt lat="47.71809" lon="6.6044">
        <ele>438.4</ele>
        <time>2022-09-04T07:39:42.000Z</time>
      </trkpt>
      <trkpt lat="47.71867" lon="6.60518">
        <ele>440.5</ele>
        <time>2022-09-04T07:40:26.000Z</time>
      </trkpt>
      <trkpt lat="47.71943" lon="6.60491">
        <ele>443.3</ele>
        <time>2022-09-04T07:41:00.000Z</time>
      </trkpt>
      <trkpt lat="47.71973" lon="6.6047">
        <ele>441</ele>
        <time>2022-09-04T07:41:14.000Z</time>
      </trkpt>
      <trkpt lat="47.71998" lon="6.60471">
        <ele>441</ele>
        <time>2022-09-04T07:41:27.000Z</time>
      </trkpt>
      <trkpt lat="47.72037" lon="6.60444">
        <ele>443.9</ele>
        <time>2022-09-04T07:41:48.000Z</time>
      </trkpt>
      <trkpt lat="47.72078" lon="6.60438">
        <ele>449.7</ele>
        <time>2022-09-04T07:42:13.000Z</time>
      </trkpt>
      <trkpt lat="47.72103" lon="6.60409">
        <ele>456</ele>
        <time>2022-09-04T07:42:37.000Z</time>
      </trkpt>
      <trkpt lat="47.72115" lon="6.60404">
        <ele>459.1</ele>
        <time>2022-09-04T07:42:48.000Z</time>
      </trkpt>
      <trkpt lat="47.7211" lon="6.60403">
        <ele>457.8</ele>
        <time>2022-09-04T07:43:01.000Z</time>
      </trkpt>
      <trkpt lat="47.72121" lon="6.60406">
        <ele>461</ele>
        <time>2022-09-04T07:43:24.000Z</time>
      </trkpt>
      <trkpt lat="47.72127" lon="6.60414">
        <ele>463.3</ele>
        <time>2022-09-04T07:43:30.000Z</time>
      </trkpt>
      <trkpt lat="47.72149" lon="6.60464">
        <ele>469.9</ele>
        <time>2022-09-04T07:43:58.000Z</time>
      </trkpt>
      <trkpt lat="47.72146" lon="6.60469">
        <ele>469.3</ele>
        <time>2022-09-04T07:44:15.000Z</time>
      </trkpt>
      <trkpt lat="47.72153" lon="6.60462">
        <ele>470.7</ele>
        <time>2022-09-04T07:44:58.000Z</time>
      </trkpt>
      <trkpt lat="47.72152" lon="6.6045">
        <ele>470.6</ele>
        <time>2022-09-04T07:45:13.000Z</time>
      </trkpt>
      <trkpt lat="47.72169" lon="6.60439">
        <ele>475.7</ele>
        <time>2022-09-04T07:45:32.000Z</time>
      </trkpt>
      <trkpt lat="47.72184" lon="6.60401">
        <ele>479.2</ele>
        <time>2022-09-04T07:45:54.000Z</time>
      </trkpt>
      <trkpt lat="47.722" lon="6.60383">
        <ele>482.8</ele>
        <time>2022-09-04T07:46:16.000Z</time>
      </trkpt>
      <trkpt lat="47.72196" lon="6.60376">
        <ele>480.9</ele>
        <time>2022-09-04T07:46:51.000Z</time>
      </trkpt>
      <trkpt lat="47.72208" lon="6.604">
        <ele>486.3</ele>
        <time>2022-09-04T07:47:13.000Z</time>
      </trkpt>
      <trkpt lat="47.72224" lon="6.60449">
        <ele>491.4</ele>
        <time>2022-09-04T07:47:36.000Z</time>
      </trkpt>
      <trkpt lat="47.72236" lon="6.60463">
        <ele>493.9</ele>
        <time>2022-09-04T07:47:44.000Z</time>
      </trkpt>
      <trkpt lat="47.72257" lon="6.60478">
        <ele>498.2</ele>
        <time>2022-09-04T07:48:12.000Z</time>
      </trkpt>
      <trkpt lat="47.72272" lon="6.60476">
        <ele>501.5</ele>
        <time>2022-09-04T07:48:28.000Z</time>
      </trkpt>
      <trkpt lat="47.72267" lon="6.60481">
        <ele>500.4</ele>
        <time>2022-09-04T07:48:41.000Z</time>
      </trkpt>
      <trkpt lat="47.72275" lon="6.60474">
        <ele>502.3</ele>
        <time>2022-09-04T07:49:11.000Z</time>
      </trkpt>
      <trkpt lat="47.72289" lon="6.60476">
        <ele>504.9</ele>
        <time>2022-09-04T07:49:29.000Z</time>
      </trkpt>
      <trkpt lat="47.72305" lon="6.60488">
        <ele>508</ele>
        <time>2022-09-04T07:49:44.000Z</time>
      </trkpt>
      <trkpt lat="47.72331" lon="6.60491">
        <ele>512.5</ele>
        <time>2022-09-04T07:50:08.000Z</time>
      </trkpt>
      <trkpt lat="47.72396" lon="6.60513">
        <ele>518</ele>
        <time>2022-09-04T07:50:54.000Z</time>
      </trkpt>
      <trkpt lat="47.72441" lon="6.6051">
        <ele>520.8</ele>
        <time>2022-09-04T07:51:18.000Z</time>
      </trkpt>
      <trkpt lat="47.72502" lon="6.60514">
        <ele>523.6</ele>
        <time>2022-09-04T07:51:44.000Z</time>
      </trkpt>
      <trkpt lat="47.72547" lon="6.60509">
        <ele>526.4</ele>
        <time>2022-09-04T07:52:01.000Z</time>
      </trkpt>
      <trkpt lat="47.72624" lon="6.60511">
        <ele>535</ele>
        <time>2022-09-04T07:52:37.000Z</time>
      </trkpt>
      <trkpt lat="47.72695" lon="6.60533">
        <ele>538.5</ele>
        <time>2022-09-04T07:53:14.000Z</time>
      </trkpt>
      <trkpt lat="47.72746" lon="6.60554">
        <ele>540.8</ele>
        <time>2022-09-04T07:53:40.000Z</time>
      </trkpt>
      <trkpt lat="47.72781" lon="6.60576">
        <ele>542.9</ele>
        <time>2022-09-04T07:53:58.000Z</time>
      </trkpt>
      <trkpt lat="47.7282" lon="6.60611">
        <ele>545.1</ele>
        <time>2022-09-04T07:54:19.000Z</time>
      </trkpt>
      <trkpt lat="47.7284" lon="6.6062">
        <ele>547.9</ele>
        <time>2022-09-04T07:54:31.000Z</time>
      </trkpt>
      <trkpt lat="47.72862" lon="6.60636">
        <ele>551.2</ele>
        <time>2022-09-04T07:54:46.000Z</time>
      </trkpt>
      <trkpt lat="47.72883" lon="6.60661">
        <ele>554.9</ele>
        <time>2022-09-04T07:55:04.000Z</time>
      </trkpt>
      <trkpt lat="47.72888" lon="6.60674">
        <ele>555.8</ele>
        <time>2022-09-04T07:55:12.000Z</time>
      </trkpt>
      <trkpt lat="47.72888" lon="6.60696">
        <ele>555.8</ele>
        <time>2022-09-04T07:55:25.000Z</time>
      </trkpt>
      <trkpt lat="47.729" lon="6.60727">
        <ele>558.2</ele>
        <time>2022-09-04T07:55:40.000Z</time>
      </trkpt>
      <trkpt lat="47.72907" lon="6.60756">
        <ele>559.5</ele>
        <time>2022-09-04T07:55:54.000Z</time>
      </trkpt>
      <trkpt lat="47.72914" lon="6.60764">
        <ele>561</ele>
        <time>2022-09-04T07:56:25.000Z</time>
      </trkpt>
      <trkpt lat="47.72915" lon="6.60771">
        <ele>561.3</ele>
        <time>2022-09-04T07:56:48.000Z</time>
      </trkpt>
      <trkpt lat="47.72928" lon="6.60788">
        <ele>564.3</ele>
        <time>2022-09-04T07:57:04.000Z</time>
      </trkpt>
      <trkpt lat="47.72936" lon="6.6081">
        <ele>566.2</ele>
        <time>2022-09-04T07:57:15.000Z</time>
      </trkpt>
      <trkpt lat="47.72953" lon="6.60841">
        <ele>570.6</ele>
        <time>2022-09-04T07:57:36.000Z</time>
      </trkpt>
      <trkpt lat="47.72967" lon="6.60891">
        <ele>573.4</ele>
        <time>2022-09-04T07:57:59.000Z</time>
      </trkpt>
      <trkpt lat="47.72992" lon="6.6094">
        <ele>574.9</ele>
        <time>2022-09-04T07:58:22.000Z</time>
      </trkpt>
      <trkpt lat="47.73031" lon="6.61001">
        <ele>581.6</ele>
        <time>2022-09-04T07:58:54.000Z</time>
      </trkpt>
      <trkpt lat="47.73045" lon="6.61009">
        <ele>584.1</ele>
        <time>2022-09-04T07:59:12.000Z</time>
      </trkpt>
      <trkpt lat="47.73084" lon="6.61044">
        <ele>590.7</ele>
        <time>2022-09-04T07:59:47.000Z</time>
      </trkpt>
      <trkpt lat="47.73112" lon="6.61102">
        <ele>595.1</ele>
        <time>2022-09-04T08:00:15.000Z</time>
      </trkpt>
      <trkpt lat="47.7315" lon="6.61159">
        <ele>600.8</ele>
        <time>2022-09-04T08:00:53.000Z</time>
      </trkpt>
      <trkpt lat="47.73174" lon="6.61203">
        <ele>601.1</ele>
        <time>2022-09-04T08:01:12.000Z</time>
      </trkpt>
      <trkpt lat="47.73229" lon="6.61244">
        <ele>603.3</ele>
        <time>2022-09-04T08:01:38.000Z</time>
      </trkpt>
      <trkpt lat="47.73305" lon="6.61324">
        <ele>594.8</ele>
        <time>2022-09-04T08:01:59.000Z</time>
      </trkpt>
      <trkpt lat="47.73369" lon="6.61375">
        <ele>593.3</ele>
        <time>2022-09-04T08:02:15.000Z</time>
      </trkpt>
      <trkpt lat="47.73417" lon="6.61442">
        <ele>592.2</ele>
        <time>2022-09-04T08:02:33.000Z</time>
      </trkpt>
      <trkpt lat="47.73446" lon="6.61503">
        <ele>597.7</ele>
        <time>2022-09-04T08:03:18.000Z</time>
      </trkpt>
      <trkpt lat="47.73467" lon="6.6153">
        <ele>601</ele>
        <time>2022-09-04T08:03:36.000Z</time>
      </trkpt>
      <trkpt lat="47.73506" lon="6.61573">
        <ele>606.6</ele>
        <time>2022-09-04T08:04:10.000Z</time>
      </trkpt>
      <trkpt lat="47.73521" lon="6.61582">
        <ele>608.4</ele>
        <time>2022-09-04T08:04:22.000Z</time>
      </trkpt>
      <trkpt lat="47.73604" lon="6.61653">
        <ele>621.5</ele>
        <time>2022-09-04T08:05:38.000Z</time>
      </trkpt>
      <trkpt lat="47.73642" lon="6.61695">
        <ele>627.2</ele>
        <time>2022-09-04T08:06:15.000Z</time>
      </trkpt>
      <trkpt lat="47.73652" lon="6.61696">
        <ele>628</ele>
        <time>2022-09-04T08:06:24.000Z</time>
      </trkpt>
      <trkpt lat="47.73664" lon="6.61689">
        <ele>628.8</ele>
        <time>2022-09-04T08:06:33.000Z</time>
      </trkpt>
      <trkpt lat="47.73692" lon="6.6166">
        <ele>629.7</ele>
        <time>2022-09-04T08:06:50.000Z</time>
      </trkpt>
      <trkpt lat="47.73724" lon="6.61614">
        <ele>629.2</ele>
        <time>2022-09-04T08:07:06.000Z</time>
      </trkpt>
      <trkpt lat="47.73759" lon="6.61592">
        <ele>629.7</ele>
        <time>2022-09-04T08:07:19.000Z</time>
      </trkpt>
      <trkpt lat="47.73783" lon="6.61539">
        <ele>627.5</ele>
        <time>2022-09-04T08:07:32.000Z</time>
      </trkpt>
      <trkpt lat="47.73797" lon="6.61514">
        <ele>626.7</ele>
        <time>2022-09-04T08:07:37.000Z</time>
      </trkpt>
      <trkpt lat="47.73825" lon="6.61475">
        <ele>624.4</ele>
        <time>2022-09-04T08:07:45.000Z</time>
      </trkpt>
      <trkpt lat="47.73844" lon="6.61464">
        <ele>622.9</ele>
        <time>2022-09-04T08:07:50.000Z</time>
      </trkpt>
      <trkpt lat="47.7386" lon="6.61473">
        <ele>622.1</ele>
        <time>2022-09-04T08:07:55.000Z</time>
      </trkpt>
      <trkpt lat="47.7389" lon="6.61515">
        <ele>624.1</ele>
        <time>2022-09-04T08:08:07.000Z</time>
      </trkpt>
      <trkpt lat="47.7392" lon="6.61543">
        <ele>625.4</ele>
        <time>2022-09-04T08:08:20.000Z</time>
      </trkpt>
      <trkpt lat="47.74024" lon="6.61663">
        <ele>631.6</ele>
        <time>2022-09-04T08:09:19.000Z</time>
      </trkpt>
      <trkpt lat="47.7405" lon="6.61699">
        <ele>635.7</ele>
        <time>2022-09-04T08:09:42.000Z</time>
      </trkpt>
      <trkpt lat="47.74067" lon="6.61715">
        <ele>638.4</ele>
        <time>2022-09-04T08:09:56.000Z</time>
      </trkpt>
      <trkpt lat="47.74102" lon="6.61764">
        <ele>643</ele>
        <time>2022-09-04T08:10:31.000Z</time>
      </trkpt>
      <trkpt lat="47.7412" lon="6.6178">
        <ele>643.8</ele>
        <time>2022-09-04T08:10:43.000Z</time>
      </trkpt>
      <trkpt lat="47.7418" lon="6.61858">
        <ele>644</ele>
        <time>2022-09-04T08:11:20.000Z</time>
      </trkpt>
      <trkpt lat="47.74191" lon="6.61882">
        <ele>644</ele>
        <time>2022-09-04T08:11:26.000Z</time>
      </trkpt>
      <trkpt lat="47.74191" lon="6.61901">
        <ele>644.7</ele>
        <time>2022-09-04T08:11:31.000Z</time>
      </trkpt>
      <trkpt lat="47.74179" lon="6.61919">
        <ele>646.1</ele>
        <time>2022-09-04T08:11:39.000Z</time>
      </trkpt>
      <trkpt lat="47.74136" lon="6.61951">
        <ele>649.4</ele>
        <time>2022-09-04T08:12:09.000Z</time>
      </trkpt>
      <trkpt lat="47.74117" lon="6.61975">
        <ele>650.8</ele>
        <time>2022-09-04T08:12:21.000Z</time>
      </trkpt>
      <trkpt lat="47.74053" lon="6.62041">
        <ele>653.1</ele>
        <time>2022-09-04T08:12:53.000Z</time>
      </trkpt>
      <trkpt lat="47.73999" lon="6.62105">
        <ele>655</ele>
        <time>2022-09-04T08:13:16.000Z</time>
      </trkpt>
      <trkpt lat="47.73916" lon="6.62185">
        <ele>652.3</ele>
        <time>2022-09-04T08:13:46.000Z</time>
      </trkpt>
      <trkpt lat="47.73902" lon="6.62206">
        <ele>651.9</ele>
        <time>2022-09-04T08:13:51.000Z</time>
      </trkpt>
      <trkpt lat="47.739" lon="6.62229">
        <ele>652.5</ele>
        <time>2022-09-04T08:13:56.000Z</time>
      </trkpt>
      <trkpt lat="47.73909" lon="6.6225">
        <ele>653</ele>
        <time>2022-09-04T08:14:02.000Z</time>
      </trkpt>
      <trkpt lat="47.7397" lon="6.62332">
        <ele>649.4</ele>
        <time>2022-09-04T08:14:28.000Z</time>
      </trkpt>
      <trkpt lat="47.73978" lon="6.62363">
        <ele>647.3</ele>
        <time>2022-09-04T08:14:32.000Z</time>
      </trkpt>
      <trkpt lat="47.73986" lon="6.62448">
        <ele>644.2</ele>
        <time>2022-09-04T08:14:42.000Z</time>
      </trkpt>
      <trkpt lat="47.74" lon="6.62492">
        <ele>644.7</ele>
        <time>2022-09-04T08:14:50.000Z</time>
      </trkpt>
      <trkpt lat="47.74019" lon="6.62538">
        <ele>646</ele>
        <time>2022-09-04T08:15:00.000Z</time>
      </trkpt>
      <trkpt lat="47.74038" lon="6.62566">
        <ele>647.1</ele>
        <time>2022-09-04T08:15:08.000Z</time>
      </trkpt>
      <trkpt lat="47.74065" lon="6.62595">
        <ele>648.8</ele>
        <time>2022-09-04T08:15:21.000Z</time>
      </trkpt>
      <trkpt lat="47.74084" lon="6.62605">
        <ele>649.6</ele>
        <time>2022-09-04T08:15:40.000Z</time>
      </trkpt>
      <trkpt lat="47.74089" lon="6.62602">
        <ele>649.4</ele>
        <time>2022-09-04T08:16:29.000Z</time>
      </trkpt>
      <trkpt lat="47.7408" lon="6.62621">
        <ele>650.6</ele>
        <time>2022-09-04T08:16:53.000Z</time>
      </trkpt>
      <trkpt lat="47.741" lon="6.62653">
        <ele>652.2</ele>
        <time>2022-09-04T08:17:10.000Z</time>
      </trkpt>
      <trkpt lat="47.74114" lon="6.62722">
        <ele>653.9</ele>
        <time>2022-09-04T08:17:37.000Z</time>
      </trkpt>
      <trkpt lat="47.74115" lon="6.62756">
        <ele>655</ele>
        <time>2022-09-04T08:17:56.000Z</time>
      </trkpt>
      <trkpt lat="47.74125" lon="6.62767">
        <ele>654.8</ele>
        <time>2022-09-04T08:18:28.000Z</time>
      </trkpt>
      <trkpt lat="47.74138" lon="6.62798">
        <ele>654.1</ele>
        <time>2022-09-04T08:19:11.000Z</time>
      </trkpt>
      <trkpt lat="47.74148" lon="6.62844">
        <ele>651.8</ele>
        <time>2022-09-04T08:19:21.000Z</time>
      </trkpt>
      <trkpt lat="47.74153" lon="6.62948">
        <ele>654.1</ele>
        <time>2022-09-04T08:19:44.000Z</time>
      </trkpt>
      <trkpt lat="47.74161" lon="6.63014">
        <ele>655.9</ele>
        <time>2022-09-04T08:20:02.000Z</time>
      </trkpt>
      <trkpt lat="47.74188" lon="6.63052">
        <ele>658.5</ele>
        <time>2022-09-04T08:20:19.000Z</time>
      </trkpt>
      <trkpt lat="47.74221" lon="6.63065">
        <ele>662.2</ele>
        <time>2022-09-04T08:20:42.000Z</time>
      </trkpt>
      <trkpt lat="47.74245" lon="6.63082">
        <ele>665.4</ele>
        <time>2022-09-04T08:21:03.000Z</time>
      </trkpt>
      <trkpt lat="47.74273" lon="6.63118">
        <ele>669.1</ele>
        <time>2022-09-04T08:21:25.000Z</time>
      </trkpt>
      <trkpt lat="47.74293" lon="6.63134">
        <ele>671.3</ele>
        <time>2022-09-04T08:21:38.000Z</time>
      </trkpt>
      <trkpt lat="47.74306" lon="6.63163">
        <ele>672.9</ele>
        <time>2022-09-04T08:21:52.000Z</time>
      </trkpt>
      <trkpt lat="47.74289" lon="6.63308">
        <ele>675.1</ele>
        <time>2022-09-04T08:22:38.000Z</time>
      </trkpt>
      <trkpt lat="47.7429" lon="6.63326">
        <ele>676.2</ele>
        <time>2022-09-04T08:22:44.000Z</time>
      </trkpt>
      <trkpt lat="47.74298" lon="6.63389">
        <ele>678.6</ele>
        <time>2022-09-04T08:23:05.000Z</time>
      </trkpt>
      <trkpt lat="47.74317" lon="6.63447">
        <ele>681.4</ele>
        <time>2022-09-04T08:23:24.000Z</time>
      </trkpt>
      <trkpt lat="47.74325" lon="6.63491">
        <ele>684.3</ele>
        <time>2022-09-04T08:23:38.000Z</time>
      </trkpt>
      <trkpt lat="47.74343" lon="6.63543">
        <ele>685.4</ele>
        <time>2022-09-04T08:23:54.000Z</time>
      </trkpt>
      <trkpt lat="47.74362" lon="6.63624">
        <ele>687.5</ele>
        <time>2022-09-04T08:24:17.000Z</time>
      </trkpt>
      <trkpt lat="47.74365" lon="6.63657">
        <ele>687.9</ele>
        <time>2022-09-04T08:24:24.000Z</time>
      </trkpt>
      <trkpt lat="47.74363" lon="6.63747">
        <ele>690.1</ele>
        <time>2022-09-04T08:24:45.000Z</time>
      </trkpt>
      <trkpt lat="47.74337" lon="6.63851">
        <ele>691.9</ele>
        <time>2022-09-04T08:25:11.000Z</time>
      </trkpt>
      <trkpt lat="47.74331" lon="6.63894">
        <ele>691.9</ele>
        <time>2022-09-04T08:25:21.000Z</time>
      </trkpt>
      <trkpt lat="47.74331" lon="6.64012">
        <ele>689.1</ele>
        <time>2022-09-04T08:25:42.000Z</time>
      </trkpt>
      <trkpt lat="47.74327" lon="6.64064">
        <ele>688.4</ele>
        <time>2022-09-04T08:25:51.000Z</time>
      </trkpt>
      <trkpt lat="47.7433" lon="6.64083">
        <ele>687</ele>
        <time>2022-09-04T08:25:55.000Z</time>
      </trkpt>
      <trkpt lat="47.74336" lon="6.64095">
        <ele>687.1</ele>
        <time>2022-09-04T08:25:59.000Z</time>
      </trkpt>
      <trkpt lat="47.74345" lon="6.64103">
        <ele>687.4</ele>
        <time>2022-09-04T08:26:09.000Z</time>
      </trkpt>
      <trkpt lat="47.7437" lon="6.64096">
        <ele>688</ele>
        <time>2022-09-04T08:26:56.000Z</time>
      </trkpt>
      <trkpt lat="47.74371" lon="6.64104">
        <ele>688</ele>
        <time>2022-09-04T08:27:25.000Z</time>
      </trkpt>
      <trkpt lat="47.74368" lon="6.64103">
        <ele>688</ele>
        <time>2022-09-04T08:28:00.000Z</time>
      </trkpt>
      <trkpt lat="47.7437" lon="6.64096">
        <ele>688</ele>
        <time>2022-09-04T08:28:34.000Z</time>
      </trkpt>
      <trkpt lat="47.74379" lon="6.64093">
        <ele>688</ele>
        <time>2022-09-04T08:28:42.000Z</time>
      </trkpt>
      <trkpt lat="47.7442" lon="6.64088">
        <ele>689</ele>
        <time>2022-09-04T08:29:00.000Z</time>
      </trkpt>
      <trkpt lat="47.74453" lon="6.64077">
        <ele>689.2</ele>
        <time>2022-09-04T08:29:12.000Z</time>
      </trkpt>
      <trkpt lat="47.74564" lon="6.64058">
        <ele>687.8</ele>
        <time>2022-09-04T08:29:47.000Z</time>
      </trkpt>
      <trkpt lat="47.7464" lon="6.64041">
        <ele>687.9</ele>
        <time>2022-09-04T08:30:14.000Z</time>
      </trkpt>
      <trkpt lat="47.74645" lon="6.64037">
        <ele>687.7</ele>
        <time>2022-09-04T08:30:56.000Z</time>
      </trkpt>
      <trkpt lat="47.74651" lon="6.64039">
        <ele>686.6</ele>
        <time>2022-09-04T08:31:15.000Z</time>
      </trkpt>
      <trkpt lat="47.74662" lon="6.64028">
        <ele>685.9</ele>
        <time>2022-09-04T08:31:25.000Z</time>
      </trkpt>
      <trkpt lat="47.74677" lon="6.63996">
        <ele>685.3</ele>
        <time>2022-09-04T08:31:36.000Z</time>
      </trkpt>
      <trkpt lat="47.74689" lon="6.6398">
        <ele>685.4</ele>
        <time>2022-09-04T08:31:49.000Z</time>
      </trkpt>
      <trkpt lat="47.74684" lon="6.63985">
        <ele>685.6</ele>
        <time>2022-09-04T08:32:02.000Z</time>
      </trkpt>
      <trkpt lat="47.74665" lon="6.64023">
        <ele>685.6</ele>
        <time>2022-09-04T08:32:15.000Z</time>
      </trkpt>
      <trkpt lat="47.74645" lon="6.64045">
        <ele>686.6</ele>
        <time>2022-09-04T08:32:28.000Z</time>
      </trkpt>
      <trkpt lat="47.74649" lon="6.64051">
        <ele>685.4</ele>
        <time>2022-09-04T08:32:57.000Z</time>
      </trkpt>
      <trkpt lat="47.7464" lon="6.64046">
        <ele>687.3</ele>
        <time>2022-09-04T08:33:12.000Z</time>
      </trkpt>
      <trkpt lat="47.74568" lon="6.64053">
        <ele>688.3</ele>
        <time>2022-09-04T08:33:35.000Z</time>
      </trkpt>
      <trkpt lat="47.74463" lon="6.64085">
        <ele>689</ele>
        <time>2022-09-04T08:34:06.000Z</time>
      </trkpt>
      <trkpt lat="47.74352" lon="6.64102">
        <ele>687.7</ele>
        <time>2022-09-04T08:34:37.000Z</time>
      </trkpt>
      <trkpt lat="47.74347" lon="6.64111">
        <ele>687.5</ele>
        <time>2022-09-04T08:34:41.000Z</time>
      </trkpt>
      <trkpt lat="47.74339" lon="6.64191">
        <ele>687.9</ele>
        <time>2022-09-04T08:34:59.000Z</time>
      </trkpt>
      <trkpt lat="47.74326" lon="6.64261">
        <ele>689.4</ele>
        <time>2022-09-04T08:35:12.000Z</time>
      </trkpt>
      <trkpt lat="47.74328" lon="6.64291">
        <ele>690.6</ele>
        <time>2022-09-04T08:35:20.000Z</time>
      </trkpt>
      <trkpt lat="47.7435" lon="6.64327">
        <ele>692.7</ele>
        <time>2022-09-04T08:35:33.000Z</time>
      </trkpt>
      <trkpt lat="47.74382" lon="6.64349">
        <ele>693.6</ele>
        <time>2022-09-04T08:35:47.000Z</time>
      </trkpt>
      <trkpt lat="47.74414" lon="6.64391">
        <ele>695.1</ele>
        <time>2022-09-04T08:36:01.000Z</time>
      </trkpt>
      <trkpt lat="47.74454" lon="6.64452">
        <ele>695.9</ele>
        <time>2022-09-04T08:36:18.000Z</time>
      </trkpt>
      <trkpt lat="47.74494" lon="6.64526">
        <ele>697</ele>
        <time>2022-09-04T08:36:38.000Z</time>
      </trkpt>
      <trkpt lat="47.74534" lon="6.64621">
        <ele>693</ele>
        <time>2022-09-04T08:37:02.000Z</time>
      </trkpt>
      <trkpt lat="47.74578" lon="6.64678">
        <ele>681.3</ele>
        <time>2022-09-04T08:37:18.000Z</time>
      </trkpt>
      <trkpt lat="47.74595" lon="6.64708">
        <ele>677.2</ele>
        <time>2022-09-04T08:37:26.000Z</time>
      </trkpt>
      <trkpt lat="47.74628" lon="6.64744">
        <ele>671.6</ele>
        <time>2022-09-04T08:37:36.000Z</time>
      </trkpt>
      <trkpt lat="47.74696" lon="6.64785">
        <ele>667.6</ele>
        <time>2022-09-04T08:38:02.000Z</time>
      </trkpt>
      <trkpt lat="47.74702" lon="6.6478">
        <ele>665.2</ele>
        <time>2022-09-04T08:38:18.000Z</time>
      </trkpt>
      <trkpt lat="47.74749" lon="6.64778">
        <ele>656</ele>
        <time>2022-09-04T08:38:34.000Z</time>
      </trkpt>
      <trkpt lat="47.74834" lon="6.64789">
        <ele>649.2</ele>
        <time>2022-09-04T08:38:54.000Z</time>
      </trkpt>
      <trkpt lat="47.74858" lon="6.64802">
        <ele>649.4</ele>
        <time>2022-09-04T08:39:00.000Z</time>
      </trkpt>
      <trkpt lat="47.74899" lon="6.64841">
        <ele>649.6</ele>
        <time>2022-09-04T08:39:12.000Z</time>
      </trkpt>
      <trkpt lat="47.74915" lon="6.64851">
        <ele>646.8</ele>
        <time>2022-09-04T08:39:17.000Z</time>
      </trkpt>
      <trkpt lat="47.74927" lon="6.64848">
        <ele>642</ele>
        <time>2022-09-04T08:39:21.000Z</time>
      </trkpt>
      <trkpt lat="47.74968" lon="6.64826">
        <ele>623.6</ele>
        <time>2022-09-04T08:39:36.000Z</time>
      </trkpt>
      <trkpt lat="47.74987" lon="6.64828">
        <ele>621.1</ele>
        <time>2022-09-04T08:39:42.000Z</time>
      </trkpt>
      <trkpt lat="47.75014" lon="6.6484">
        <ele>618.8</ele>
        <time>2022-09-04T08:39:47.000Z</time>
      </trkpt>
      <trkpt lat="47.75053" lon="6.64869">
        <ele>613.8</ele>
        <time>2022-09-04T08:39:55.000Z</time>
      </trkpt>
      <trkpt lat="47.75088" lon="6.64907">
        <ele>607.5</ele>
        <time>2022-09-04T08:40:04.000Z</time>
      </trkpt>
      <trkpt lat="47.75116" lon="6.64944">
        <ele>602</ele>
        <time>2022-09-04T08:40:11.000Z</time>
      </trkpt>
      <trkpt lat="47.75193" lon="6.6507">
        <ele>582.8</ele>
        <time>2022-09-04T08:41:00.000Z</time>
      </trkpt>
      <trkpt lat="47.75213" lon="6.65078">
        <ele>579</ele>
        <time>2022-09-04T08:41:25.000Z</time>
      </trkpt>
      <trkpt lat="47.75211" lon="6.65088">
        <ele>578.2</ele>
        <time>2022-09-04T08:41:34.000Z</time>
      </trkpt>
      <trkpt lat="47.75216" lon="6.65115">
        <ele>573</ele>
        <time>2022-09-04T08:41:43.000Z</time>
      </trkpt>
      <trkpt lat="47.75213" lon="6.65133">
        <ele>571</ele>
        <time>2022-09-04T08:41:48.000Z</time>
      </trkpt>
      <trkpt lat="47.75202" lon="6.65163">
        <ele>566.8</ele>
        <time>2022-09-04T08:41:55.000Z</time>
      </trkpt>
      <trkpt lat="47.75172" lon="6.65218">
        <ele>559.5</ele>
        <time>2022-09-04T08:42:12.000Z</time>
      </trkpt>
      <trkpt lat="47.75159" lon="6.65268">
        <ele>550.6</ele>
        <time>2022-09-04T08:42:37.000Z</time>
      </trkpt>
      <trkpt lat="47.75142" lon="6.65362">
        <ele>530</ele>
        <time>2022-09-04T08:42:59.000Z</time>
      </trkpt>
      <trkpt lat="47.75114" lon="6.65436">
        <ele>521.1</ele>
        <time>2022-09-04T08:43:19.000Z</time>
      </trkpt>
      <trkpt lat="47.75115" lon="6.65449">
        <ele>517.9</ele>
        <time>2022-09-04T08:43:24.000Z</time>
      </trkpt>
      <trkpt lat="47.75133" lon="6.65499">
        <ele>502.7</ele>
        <time>2022-09-04T08:43:54.000Z</time>
      </trkpt>
      <trkpt lat="47.75122" lon="6.65558">
        <ele>491.7</ele>
        <time>2022-09-04T08:44:14.000Z</time>
      </trkpt>
      <trkpt lat="47.75124" lon="6.65592">
        <ele>486.8</ele>
        <time>2022-09-04T08:44:29.000Z</time>
      </trkpt>
      <trkpt lat="47.75157" lon="6.65663">
        <ele>479.5</ele>
        <time>2022-09-04T08:44:50.000Z</time>
      </trkpt>
      <trkpt lat="47.75162" lon="6.65686">
        <ele>478.4</ele>
        <time>2022-09-04T08:44:54.000Z</time>
      </trkpt>
      <trkpt lat="47.75167" lon="6.65744">
        <ele>477</ele>
        <time>2022-09-04T08:45:03.000Z</time>
      </trkpt>
      <trkpt lat="47.75177" lon="6.65765">
        <ele>477.2</ele>
        <time>2022-09-04T08:45:09.000Z</time>
      </trkpt>
      <trkpt lat="47.75188" lon="6.65768">
        <ele>477.7</ele>
        <time>2022-09-04T08:45:14.000Z</time>
      </trkpt>
      <trkpt lat="47.7524" lon="6.6576">
        <ele>478.7</ele>
        <time>2022-09-04T08:45:30.000Z</time>
      </trkpt>
      <trkpt lat="47.75271" lon="6.65761">
        <ele>480.6</ele>
        <time>2022-09-04T08:45:39.000Z</time>
      </trkpt>
      <trkpt lat="47.75298" lon="6.65766">
        <ele>481.8</ele>
        <time>2022-09-04T08:45:49.000Z</time>
      </trkpt>
      <trkpt lat="47.75323" lon="6.65779">
        <ele>483</ele>
        <time>2022-09-04T08:46:03.000Z</time>
      </trkpt>
      <trkpt lat="47.75328" lon="6.65778">
        <ele>482.4</ele>
        <time>2022-09-04T08:46:20.000Z</time>
      </trkpt>
      <trkpt lat="47.7533" lon="6.65774">
        <ele>481.4</ele>
        <time>2022-09-04T08:46:32.000Z</time>
      </trkpt>
      <trkpt lat="47.75324" lon="6.65773">
        <ele>481.7</ele>
        <time>2022-09-04T08:46:48.000Z</time>
      </trkpt>
      <trkpt lat="47.75328" lon="6.65769">
        <ele>480.4</ele>
        <time>2022-09-04T08:46:59.000Z</time>
      </trkpt>
      <trkpt lat="47.7534" lon="6.65779">
        <ele>480.9</ele>
        <time>2022-09-04T08:47:46.000Z</time>
      </trkpt>
      <trkpt lat="47.75336" lon="6.65783">
        <ele>482.3</ele>
        <time>2022-09-04T08:47:59.000Z</time>
      </trkpt>
      <trkpt lat="47.75338" lon="6.65779">
        <ele>481.3</ele>
        <time>2022-09-04T08:48:17.000Z</time>
      </trkpt>
      <trkpt lat="47.75269" lon="6.65772">
        <ele>483.8</ele>
        <time>2022-09-04T08:48:52.000Z</time>
      </trkpt>
      <trkpt lat="47.75244" lon="6.65779">
        <ele>484.4</ele>
        <time>2022-09-04T08:49:00.000Z</time>
      </trkpt>
      <trkpt lat="47.75212" lon="6.65797">
        <ele>485.4</ele>
        <time>2022-09-04T08:49:10.000Z</time>
      </trkpt>
      <trkpt lat="47.75193" lon="6.65814">
        <ele>486.7</ele>
        <time>2022-09-04T08:49:16.000Z</time>
      </trkpt>
      <trkpt lat="47.75173" lon="6.6584">
        <ele>487.7</ele>
        <time>2022-09-04T08:49:23.000Z</time>
      </trkpt>
      <trkpt lat="47.75085" lon="6.65967">
        <ele>491.5</ele>
        <time>2022-09-04T08:49:59.000Z</time>
      </trkpt>
      <trkpt lat="47.75018" lon="6.66077">
        <ele>500.2</ele>
        <time>2022-09-04T08:50:46.000Z</time>
      </trkpt>
      <trkpt lat="47.74965" lon="6.66105">
        <ele>502.4</ele>
        <time>2022-09-04T08:51:11.000Z</time>
      </trkpt>
      <trkpt lat="47.74933" lon="6.66134">
        <ele>505.3</ele>
        <time>2022-09-04T08:51:27.000Z</time>
      </trkpt>
      <trkpt lat="47.74885" lon="6.66145">
        <ele>512</ele>
        <time>2022-09-04T08:51:49.000Z</time>
      </trkpt>
      <trkpt lat="47.74856" lon="6.66149">
        <ele>516.8</ele>
        <time>2022-09-04T08:52:06.000Z</time>
      </trkpt>
      <trkpt lat="47.74823" lon="6.66123">
        <ele>515.7</ele>
        <time>2022-09-04T08:52:23.000Z</time>
      </trkpt>
      <trkpt lat="47.74794" lon="6.66121">
        <ele>519.7</ele>
        <time>2022-09-04T08:52:59.000Z</time>
      </trkpt>
      <trkpt lat="47.74789" lon="6.66132">
        <ele>523.4</ele>
        <time>2022-09-04T08:53:12.000Z</time>
      </trkpt>
      <trkpt lat="47.74778" lon="6.66182">
        <ele>540.5</ele>
        <time>2022-09-04T08:53:34.000Z</time>
      </trkpt>
      <trkpt lat="47.7478" lon="6.66208">
        <ele>547.7</ele>
        <time>2022-09-04T08:53:44.000Z</time>
      </trkpt>
      <trkpt lat="47.74734" lon="6.6623">
        <ele>560.3</ele>
        <time>2022-09-04T08:54:40.000Z</time>
      </trkpt>
      <trkpt lat="47.74715" lon="6.66236">
        <ele>564.9</ele>
        <time>2022-09-04T08:54:56.000Z</time>
      </trkpt>
      <trkpt lat="47.74709" lon="6.66233">
        <ele>564.8</ele>
        <time>2022-09-04T08:55:02.000Z</time>
      </trkpt>
      <trkpt lat="47.74706" lon="6.6624">
        <ele>567.5</ele>
        <time>2022-09-04T08:55:13.000Z</time>
      </trkpt>
      <trkpt lat="47.74695" lon="6.66246">
        <ele>571.4</ele>
        <time>2022-09-04T08:56:04.000Z</time>
      </trkpt>
      <trkpt lat="47.74689" lon="6.66242">
        <ele>571</ele>
        <time>2022-09-04T08:56:13.000Z</time>
      </trkpt>
      <trkpt lat="47.74674" lon="6.66244">
        <ele>574.2</ele>
        <time>2022-09-04T08:56:23.000Z</time>
      </trkpt>
      <trkpt lat="47.74632" lon="6.66234">
        <ele>578.6</ele>
        <time>2022-09-04T08:57:08.000Z</time>
      </trkpt>
      <trkpt lat="47.74621" lon="6.66251">
        <ele>587.8</ele>
        <time>2022-09-04T08:57:16.000Z</time>
      </trkpt>
      <trkpt lat="47.74619" lon="6.66249">
        <ele>587.7</ele>
        <time>2022-09-04T08:57:22.000Z</time>
      </trkpt>
      <trkpt lat="47.7462" lon="6.66244">
        <ele>585.3</ele>
        <time>2022-09-04T08:57:30.000Z</time>
      </trkpt>
      <trkpt lat="47.74584" lon="6.66248">
        <ele>595.9</ele>
        <time>2022-09-04T08:59:21.000Z</time>
      </trkpt>
      <trkpt lat="47.74576" lon="6.66239">
        <ele>595.2</ele>
        <time>2022-09-04T08:59:29.000Z</time>
      </trkpt>
      <trkpt lat="47.7453" lon="6.66236">
        <ele>606.6</ele>
        <time>2022-09-04T09:02:25.000Z</time>
      </trkpt>
      <trkpt lat="47.74532" lon="6.66235">
        <ele>605.8</ele>
        <time>2022-09-04T09:02:26.000Z</time>
      </trkpt>
      <trkpt lat="47.74524" lon="6.66231">
        <ele>605.5</ele>
        <time>2022-09-04T09:02:32.000Z</time>
      </trkpt>
      <trkpt lat="47.74522" lon="6.66224">
        <ele>603</ele>
        <time>2022-09-04T09:02:35.000Z</time>
      </trkpt>
      <trkpt lat="47.74511" lon="6.66229">
        <ele>605.7</ele>
        <time>2022-09-04T09:02:46.000Z</time>
      </trkpt>
      <trkpt lat="47.74434" lon="6.66007">
        <ele>589.8</ele>
        <time>2022-09-04T09:02:54.000Z</time>
      </trkpt>
      <trkpt lat="47.74414" lon="6.65958">
        <ele>611.1</ele>
        <time>2022-09-04T09:03:40.000Z</time>
      </trkpt>
      <trkpt lat="47.74425" lon="6.65958">
        <ele>612.1</ele>
        <time>2022-09-04T09:03:58.000Z</time>
      </trkpt>
      <trkpt lat="47.74433" lon="6.65951">
        <ele>615.6</ele>
        <time>2022-09-04T09:04:07.000Z</time>
      </trkpt>
      <trkpt lat="47.74428" lon="6.65948">
        <ele>616.7</ele>
        <time>2022-09-04T09:04:15.000Z</time>
      </trkpt>
      <trkpt lat="47.74418" lon="6.65955">
        <ele>613</ele>
        <time>2022-09-04T09:04:26.000Z</time>
      </trkpt>
      <trkpt lat="47.74428" lon="6.66042">
        <ele>582.7</ele>
        <time>2022-09-04T09:05:10.000Z</time>
      </trkpt>
      <trkpt lat="47.74464" lon="6.66078">
        <ele>577.4</ele>
        <time>2022-09-04T09:05:35.000Z</time>
      </trkpt>
      <trkpt lat="47.74504" lon="6.6613">
        <ele>575.9</ele>
        <time>2022-09-04T09:05:45.000Z</time>
      </trkpt>
      <trkpt lat="47.74564" lon="6.66177">
        <ele>576.7</ele>
        <time>2022-09-04T09:05:56.000Z</time>
      </trkpt>
      <trkpt lat="47.74609" lon="6.66202">
        <ele>570.8</ele>
        <time>2022-09-04T09:06:02.000Z</time>
      </trkpt>
      <trkpt lat="47.74642" lon="6.66217">
        <ele>569.3</ele>
        <time>2022-09-04T09:06:06.000Z</time>
      </trkpt>
      <trkpt lat="47.74706" lon="6.6623">
        <ele>564.3</ele>
        <time>2022-09-04T09:06:23.000Z</time>
      </trkpt>
      <trkpt lat="47.74726" lon="6.6624">
        <ele>565</ele>
        <time>2022-09-04T09:06:37.000Z</time>
      </trkpt>
      <trkpt lat="47.7475" lon="6.66266">
        <ele>569.1</ele>
        <time>2022-09-04T09:07:09.000Z</time>
      </trkpt>
      <trkpt lat="47.7478" lon="6.66323">
        <ele>578.3</ele>
        <time>2022-09-04T09:08:01.000Z</time>
      </trkpt>
      <trkpt lat="47.74816" lon="6.66363">
        <ele>582.1</ele>
        <time>2022-09-04T09:08:29.000Z</time>
      </trkpt>
      <trkpt lat="47.74832" lon="6.66396">
        <ele>586.8</ele>
        <time>2022-09-04T09:08:38.000Z</time>
      </trkpt>
      <trkpt lat="47.74837" lon="6.66421">
        <ele>591</ele>
        <time>2022-09-04T09:08:52.000Z</time>
      </trkpt>
      <trkpt lat="47.74839" lon="6.66416">
        <ele>589.8</ele>
        <time>2022-09-04T09:08:58.000Z</time>
      </trkpt>
      <trkpt lat="47.74853" lon="6.66405">
        <ele>584</ele>
        <time>2022-09-04T09:09:03.000Z</time>
      </trkpt>
      <trkpt lat="47.74876" lon="6.66402">
        <ele>576.7</ele>
        <time>2022-09-04T09:09:07.000Z</time>
      </trkpt>
      <trkpt lat="47.74966" lon="6.66415">
        <ele>571</ele>
        <time>2022-09-04T09:09:21.000Z</time>
      </trkpt>
      <trkpt lat="47.74991" lon="6.66427">
        <ele>575.3</ele>
        <time>2022-09-04T09:09:27.000Z</time>
      </trkpt>
      <trkpt lat="47.74996" lon="6.66439">
        <ele>577.7</ele>
        <time>2022-09-04T09:09:32.000Z</time>
      </trkpt>
      <trkpt lat="47.74999" lon="6.6646">
        <ele>580.6</ele>
        <time>2022-09-04T09:09:45.000Z</time>
      </trkpt>
      <trkpt lat="47.74993" lon="6.66473">
        <ele>581.8</ele>
        <time>2022-09-04T09:09:54.000Z</time>
      </trkpt>
      <trkpt lat="47.74973" lon="6.66496">
        <ele>583.5</ele>
        <time>2022-09-04T09:10:08.000Z</time>
      </trkpt>
      <trkpt lat="47.74933" lon="6.66523">
        <ele>586.3</ele>
        <time>2022-09-04T09:10:30.000Z</time>
      </trkpt>
      <trkpt lat="47.74903" lon="6.66561">
        <ele>591.4</ele>
        <time>2022-09-04T09:10:54.000Z</time>
      </trkpt>
      <trkpt lat="47.74888" lon="6.66617">
        <ele>594.5</ele>
        <time>2022-09-04T09:11:20.000Z</time>
      </trkpt>
      <trkpt lat="47.74882" lon="6.66628">
        <ele>596.1</ele>
        <time>2022-09-04T09:11:26.000Z</time>
      </trkpt>
      <trkpt lat="47.74862" lon="6.66637">
        <ele>600.1</ele>
        <time>2022-09-04T09:12:05.000Z</time>
      </trkpt>
      <trkpt lat="47.74859" lon="6.66646">
        <ele>599.4</ele>
        <time>2022-09-04T09:12:51.000Z</time>
      </trkpt>
      <trkpt lat="47.74856" lon="6.66639">
        <ele>600.8</ele>
        <time>2022-09-04T09:13:34.000Z</time>
      </trkpt>
      <trkpt lat="47.74862" lon="6.66645">
        <ele>599.2</ele>
        <time>2022-09-04T09:14:06.000Z</time>
      </trkpt>
      <trkpt lat="47.74862" lon="6.66641">
        <ele>599.5</ele>
        <time>2022-09-04T09:14:20.000Z</time>
      </trkpt>
      <trkpt lat="47.74849" lon="6.66646">
        <ele>600.8</ele>
        <time>2022-09-04T09:14:37.000Z</time>
      </trkpt>
      <trkpt lat="47.74804" lon="6.66674">
        <ele>603.9</ele>
        <time>2022-09-04T09:14:58.000Z</time>
      </trkpt>
      <trkpt lat="47.74769" lon="6.66705">
        <ele>607.6</ele>
        <time>2022-09-04T09:15:17.000Z</time>
      </trkpt>
      <trkpt lat="47.74746" lon="6.66744">
        <ele>606.6</ele>
        <time>2022-09-04T09:15:29.000Z</time>
      </trkpt>
      <trkpt lat="47.74717" lon="6.6681">
        <ele>603</ele>
        <time>2022-09-04T09:15:42.000Z</time>
      </trkpt>
      <trkpt lat="47.74692" lon="6.66835">
        <ele>599.6</ele>
        <time>2022-09-04T09:15:47.000Z</time>
      </trkpt>
      <trkpt lat="47.74673" lon="6.66843">
        <ele>597.9</ele>
        <time>2022-09-04T09:15:50.000Z</time>
      </trkpt>
      <trkpt lat="47.7465" lon="6.66842">
        <ele>597.3</ele>
        <time>2022-09-04T09:15:55.000Z</time>
      </trkpt>
      <trkpt lat="47.74636" lon="6.66836">
        <ele>597.5</ele>
        <time>2022-09-04T09:15:58.000Z</time>
      </trkpt>
      <trkpt lat="47.746" lon="6.66805">
        <ele>601.1</ele>
        <time>2022-09-04T09:16:12.000Z</time>
      </trkpt>
      <trkpt lat="47.74592" lon="6.66804">
        <ele>602</ele>
        <time>2022-09-04T09:16:18.000Z</time>
      </trkpt>
      <trkpt lat="47.74576" lon="6.66811">
        <ele>601.5</ele>
        <time>2022-09-04T09:16:30.000Z</time>
      </trkpt>
      <trkpt lat="47.74536" lon="6.66801">
        <ele>608.8</ele>
        <time>2022-09-04T09:16:58.000Z</time>
      </trkpt>
      <trkpt lat="47.74526" lon="6.66808">
        <ele>607.5</ele>
        <time>2022-09-04T09:17:05.000Z</time>
      </trkpt>
      <trkpt lat="47.74517" lon="6.66822">
        <ele>608.6</ele>
        <time>2022-09-04T09:17:12.000Z</time>
      </trkpt>
      <trkpt lat="47.74505" lon="6.66864">
        <ele>606.8</ele>
        <time>2022-09-04T09:17:35.000Z</time>
      </trkpt>
      <trkpt lat="47.74486" lon="6.66883">
        <ele>610.6</ele>
        <time>2022-09-04T09:17:51.000Z</time>
      </trkpt>
      <trkpt lat="47.74475" lon="6.66883">
        <ele>614.1</ele>
        <time>2022-09-04T09:17:58.000Z</time>
      </trkpt>
      <trkpt lat="47.74444" lon="6.66868">
        <ele>620.3</ele>
        <time>2022-09-04T09:18:20.000Z</time>
      </trkpt>
      <trkpt lat="47.74413" lon="6.66874">
        <ele>618.8</ele>
        <time>2022-09-04T09:18:37.000Z</time>
      </trkpt>
      <trkpt lat="47.74375" lon="6.66872">
        <ele>622</ele>
        <time>2022-09-04T09:18:54.000Z</time>
      </trkpt>
      <trkpt lat="47.74336" lon="6.66884">
        <ele>622.6</ele>
        <time>2022-09-04T09:19:12.000Z</time>
      </trkpt>
      <trkpt lat="47.74306" lon="6.66926">
        <ele>621.2</ele>
        <time>2022-09-04T09:19:31.000Z</time>
      </trkpt>
      <trkpt lat="47.743" lon="6.66972">
        <ele>618</ele>
        <time>2022-09-04T09:19:43.000Z</time>
      </trkpt>
      <trkpt lat="47.74276" lon="6.67033">
        <ele>622.8</ele>
        <time>2022-09-04T09:20:04.000Z</time>
      </trkpt>
      <trkpt lat="47.7427" lon="6.6707">
        <ele>625.7</ele>
        <time>2022-09-04T09:20:22.000Z</time>
      </trkpt>
      <trkpt lat="47.74257" lon="6.67082">
        <ele>630.1</ele>
        <time>2022-09-04T09:20:34.000Z</time>
      </trkpt>
      <trkpt lat="47.74241" lon="6.67108">
        <ele>635.5</ele>
        <time>2022-09-04T09:21:04.000Z</time>
      </trkpt>
      <trkpt lat="47.7422" lon="6.67109">
        <ele>642.2</ele>
        <time>2022-09-04T09:21:32.000Z</time>
      </trkpt>
      <trkpt lat="47.74234" lon="6.67139">
        <ele>639.8</ele>
        <time>2022-09-04T09:21:54.000Z</time>
      </trkpt>
      <trkpt lat="47.74248" lon="6.67147">
        <ele>639.5</ele>
        <time>2022-09-04T09:22:01.000Z</time>
      </trkpt>
      <trkpt lat="47.7426" lon="6.67145">
        <ele>639</ele>
        <time>2022-09-04T09:22:06.000Z</time>
      </trkpt>
      <trkpt lat="47.74301" lon="6.67119">
        <ele>634.4</ele>
        <time>2022-09-04T09:22:16.000Z</time>
      </trkpt>
      <trkpt lat="47.74316" lon="6.67114">
        <ele>631.6</ele>
        <time>2022-09-04T09:22:19.000Z</time>
      </trkpt>
      <trkpt lat="47.74332" lon="6.67116">
        <ele>630.4</ele>
        <time>2022-09-04T09:22:22.000Z</time>
      </trkpt>
      <trkpt lat="47.74347" lon="6.67126">
        <ele>628.2</ele>
        <time>2022-09-04T09:22:25.000Z</time>
      </trkpt>
      <trkpt lat="47.7437" lon="6.67161">
        <ele>626.1</ele>
        <time>2022-09-04T09:22:31.000Z</time>
      </trkpt>
      <trkpt lat="47.74411" lon="6.67263">
        <ele>625.4</ele>
        <time>2022-09-04T09:22:45.000Z</time>
      </trkpt>
      <trkpt lat="47.74439" lon="6.67311">
        <ele>618.3</ele>
        <time>2022-09-04T09:22:51.000Z</time>
      </trkpt>
      <trkpt lat="47.74481" lon="6.67356">
        <ele>608.2</ele>
        <time>2022-09-04T09:22:57.000Z</time>
      </trkpt>
      <trkpt lat="47.74554" lon="6.67407">
        <ele>595.1</ele>
        <time>2022-09-04T09:23:37.000Z</time>
      </trkpt>
      <trkpt lat="47.74649" lon="6.67427">
        <ele>570.5</ele>
        <time>2022-09-04T09:24:07.000Z</time>
      </trkpt>
      <trkpt lat="47.74676" lon="6.67427">
        <ele>563.8</ele>
        <time>2022-09-04T09:24:17.000Z</time>
      </trkpt>
      <trkpt lat="47.74686" lon="6.67432">
        <ele>561.6</ele>
        <time>2022-09-04T09:24:31.000Z</time>
      </trkpt>
      <trkpt lat="47.7474" lon="6.67403">
        <ele>546.2</ele>
        <time>2022-09-04T09:24:59.000Z</time>
      </trkpt>
      <trkpt lat="47.74822" lon="6.67373">
        <ele>523.7</ele>
        <time>2022-09-04T09:25:25.000Z</time>
      </trkpt>
      <trkpt lat="47.74855" lon="6.67367">
        <ele>513.4</ele>
        <time>2022-09-04T09:25:33.000Z</time>
      </trkpt>
      <trkpt lat="47.74882" lon="6.67373">
        <ele>505.2</ele>
        <time>2022-09-04T09:25:39.000Z</time>
      </trkpt>
      <trkpt lat="47.74945" lon="6.67403">
        <ele>490.9</ele>
        <time>2022-09-04T09:25:53.000Z</time>
      </trkpt>
      <trkpt lat="47.74957" lon="6.67415">
        <ele>490.1</ele>
        <time>2022-09-04T09:25:57.000Z</time>
      </trkpt>
      <trkpt lat="47.74963" lon="6.6743">
        <ele>489.7</ele>
        <time>2022-09-04T09:26:02.000Z</time>
      </trkpt>
      <trkpt lat="47.7496" lon="6.67485">
        <ele>490.7</ele>
        <time>2022-09-04T09:26:22.000Z</time>
      </trkpt>
      <trkpt lat="47.74944" lon="6.67508">
        <ele>492.8</ele>
        <time>2022-09-04T09:26:35.000Z</time>
      </trkpt>
      <trkpt lat="47.74936" lon="6.67528">
        <ele>494.8</ele>
        <time>2022-09-04T09:26:46.000Z</time>
      </trkpt>
      <trkpt lat="47.74917" lon="6.67555">
        <ele>498.9</ele>
        <time>2022-09-04T09:27:16.000Z</time>
      </trkpt>
      <trkpt lat="47.74914" lon="6.67563">
        <ele>500.7</ele>
        <time>2022-09-04T09:27:31.000Z</time>
      </trkpt>
      <trkpt lat="47.74915" lon="6.67568">
        <ele>501.6</ele>
        <time>2022-09-04T09:27:45.000Z</time>
      </trkpt>
      <trkpt lat="47.74904" lon="6.67566">
        <ele>501.2</ele>
        <time>2022-09-04T09:28:38.000Z</time>
      </trkpt>
      <trkpt lat="47.74838" lon="6.6761">
        <ele>511.7</ele>
        <time>2022-09-04T09:29:57.000Z</time>
      </trkpt>
      <trkpt lat="47.74811" lon="6.67612">
        <ele>513.1</ele>
        <time>2022-09-04T09:30:13.000Z</time>
      </trkpt>
      <trkpt lat="47.74797" lon="6.67619">
        <ele>515</ele>
        <time>2022-09-04T09:30:25.000Z</time>
      </trkpt>
      <trkpt lat="47.74768" lon="6.67616">
        <ele>514.2</ele>
        <time>2022-09-04T09:30:42.000Z</time>
      </trkpt>
      <trkpt lat="47.74753" lon="6.6762">
        <ele>515.1</ele>
        <time>2022-09-04T09:30:54.000Z</time>
      </trkpt>
      <trkpt lat="47.7474" lon="6.67631">
        <ele>519.6</ele>
        <time>2022-09-04T09:31:05.000Z</time>
      </trkpt>
      <trkpt lat="47.74723" lon="6.67633">
        <ele>520.7</ele>
        <time>2022-09-04T09:31:16.000Z</time>
      </trkpt>
      <trkpt lat="47.7471" lon="6.67639">
        <ele>522.6</ele>
        <time>2022-09-04T09:31:25.000Z</time>
      </trkpt>
      <trkpt lat="47.74692" lon="6.67637">
        <ele>521.6</ele>
        <time>2022-09-04T09:31:36.000Z</time>
      </trkpt>
      <trkpt lat="47.7467" lon="6.67641">
        <ele>523.5</ele>
        <time>2022-09-04T09:31:53.000Z</time>
      </trkpt>
      <trkpt lat="47.74642" lon="6.67665">
        <ele>531.5</ele>
        <time>2022-09-04T09:32:23.000Z</time>
      </trkpt>
      <trkpt lat="47.7472" lon="6.67636">
        <ele>522</ele>
        <time>2022-09-04T09:32:48.000Z</time>
      </trkpt>
      <trkpt lat="47.74839" lon="6.67611">
        <ele>512.1</ele>
        <time>2022-09-04T09:33:06.000Z</time>
      </trkpt>
      <trkpt lat="47.74875" lon="6.67598">
        <ele>508.8</ele>
        <time>2022-09-04T09:33:12.000Z</time>
      </trkpt>
      <trkpt lat="47.74901" lon="6.67579">
        <ele>504.1</ele>
        <time>2022-09-04T09:33:17.000Z</time>
      </trkpt>
      <trkpt lat="47.74917" lon="6.67563">
        <ele>500.6</ele>
        <time>2022-09-04T09:33:20.000Z</time>
      </trkpt>
      <trkpt lat="47.74939" lon="6.6753">
        <ele>495.1</ele>
        <time>2022-09-04T09:33:24.000Z</time>
      </trkpt>
      <trkpt lat="47.7497" lon="6.67458">
        <ele>489.6</ele>
        <time>2022-09-04T09:33:31.000Z</time>
      </trkpt>
      <trkpt lat="47.74987" lon="6.67428">
        <ele>488.2</ele>
        <time>2022-09-04T09:33:35.000Z</time>
      </trkpt>
      <trkpt lat="47.75015" lon="6.67391">
        <ele>486.5</ele>
        <time>2022-09-04T09:33:59.000Z</time>
      </trkpt>
      <trkpt lat="47.75104" lon="6.67292">
        <ele>481.8</ele>
        <time>2022-09-04T09:34:27.000Z</time>
      </trkpt>
      <trkpt lat="47.75154" lon="6.67193">
        <ele>479.4</ele>
        <time>2022-09-04T09:34:44.000Z</time>
      </trkpt>
      <trkpt lat="47.75198" lon="6.67087">
        <ele>477.9</ele>
        <time>2022-09-04T09:35:00.000Z</time>
      </trkpt>
      <trkpt lat="47.75221" lon="6.67052">
        <ele>476.9</ele>
        <time>2022-09-04T09:35:06.000Z</time>
      </trkpt>
      <trkpt lat="47.75246" lon="6.67032">
        <ele>476</ele>
        <time>2022-09-04T09:35:11.000Z</time>
      </trkpt>
      <trkpt lat="47.75284" lon="6.67008">
        <ele>475.2</ele>
        <time>2022-09-04T09:35:18.000Z</time>
      </trkpt>
      <trkpt lat="47.75307" lon="6.66999">
        <ele>474.8</ele>
        <time>2022-09-04T09:35:22.000Z</time>
      </trkpt>
      <trkpt lat="47.75326" lon="6.66999">
        <ele>473.5</ele>
        <time>2022-09-04T09:35:25.000Z</time>
      </trkpt>
      <trkpt lat="47.75348" lon="6.67012">
        <ele>472.5</ele>
        <time>2022-09-04T09:35:29.000Z</time>
      </trkpt>
      <trkpt lat="47.75375" lon="6.67044">
        <ele>472.8</ele>
        <time>2022-09-04T09:35:37.000Z</time>
      </trkpt>
      <trkpt lat="47.75382" lon="6.67048">
        <ele>472.9</ele>
        <time>2022-09-04T09:35:44.000Z</time>
      </trkpt>
      <trkpt lat="47.75376" lon="6.67065">
        <ele>473</ele>
        <time>2022-09-04T09:35:56.000Z</time>
      </trkpt>
      <trkpt lat="47.75376" lon="6.6708">
        <ele>473</ele>
        <time>2022-09-04T09:36:08.000Z</time>
      </trkpt>
      <trkpt lat="47.75364" lon="6.6709">
        <ele>473.2</ele>
        <time>2022-09-04T09:38:01.000Z</time>
      </trkpt>
      <trkpt lat="47.75373" lon="6.67061">
        <ele>473</ele>
        <time>2022-09-04T09:38:15.000Z</time>
      </trkpt>
      <trkpt lat="47.75409" lon="6.67024">
        <ele>473.8</ele>
        <time>2022-09-04T09:38:28.000Z</time>
      </trkpt>
      <trkpt lat="47.75448" lon="6.66957">
        <ele>478.1</ele>
        <time>2022-09-04T09:38:45.000Z</time>
      </trkpt>
      <trkpt lat="47.7549" lon="6.66907">
        <ele>479.1</ele>
        <time>2022-09-04T09:39:00.000Z</time>
      </trkpt>
      <trkpt lat="47.75518" lon="6.66862">
        <ele>479.6</ele>
        <time>2022-09-04T09:39:11.000Z</time>
      </trkpt>
      <trkpt lat="47.7554" lon="6.66794">
        <ele>479.5</ele>
        <time>2022-09-04T09:39:24.000Z</time>
      </trkpt>
      <trkpt lat="47.75574" lon="6.66649">
        <ele>480.7</ele>
        <time>2022-09-04T09:39:46.000Z</time>
      </trkpt>
      <trkpt lat="47.75625" lon="6.66488">
        <ele>480</ele>
        <time>2022-09-04T09:40:15.000Z</time>
      </trkpt>
      <trkpt lat="47.75627" lon="6.66473">
        <ele>480</ele>
        <time>2022-09-04T09:40:20.000Z</time>
      </trkpt>
      <trkpt lat="47.75623" lon="6.66465">
        <ele>479.9</ele>
        <time>2022-09-04T09:40:31.000Z</time>
      </trkpt>
      <trkpt lat="47.75628" lon="6.66468">
        <ele>479.9</ele>
        <time>2022-09-04T09:41:11.000Z</time>
      </trkpt>
      <trkpt lat="47.75635" lon="6.66444">
        <ele>479.1</ele>
        <time>2022-09-04T09:41:36.000Z</time>
      </trkpt>
      <trkpt lat="47.75636" lon="6.66426">
        <ele>479</ele>
        <time>2022-09-04T09:41:40.000Z</time>
      </trkpt>
      <trkpt lat="47.75629" lon="6.66333">
        <ele>478.3</ele>
        <time>2022-09-04T09:41:52.000Z</time>
      </trkpt>
      <trkpt lat="47.75632" lon="6.66274">
        <ele>477</ele>
        <time>2022-09-04T09:41:59.000Z</time>
      </trkpt>
      <trkpt lat="47.75662" lon="6.66084">
        <ele>473.8</ele>
        <time>2022-09-04T09:42:21.000Z</time>
      </trkpt>
      <trkpt lat="47.75699" lon="6.65894">
        <ele>471</ele>
        <time>2022-09-04T09:42:41.000Z</time>
      </trkpt>
      <trkpt lat="47.75713" lon="6.65765">
        <ele>469.3</ele>
        <time>2022-09-04T09:42:54.000Z</time>
      </trkpt>
      <trkpt lat="47.7572" lon="6.65725">
        <ele>468.2</ele>
        <time>2022-09-04T09:42:58.000Z</time>
      </trkpt>
      <trkpt lat="47.75746" lon="6.65642">
        <ele>465.5</ele>
        <time>2022-09-04T09:43:06.000Z</time>
      </trkpt>
      <trkpt lat="47.75809" lon="6.65507">
        <ele>458.9</ele>
        <time>2022-09-04T09:43:18.000Z</time>
      </trkpt>
      <trkpt lat="47.75824" lon="6.65463">
        <ele>457.9</ele>
        <time>2022-09-04T09:43:22.000Z</time>
      </trkpt>
      <trkpt lat="47.75829" lon="6.65419">
        <ele>458</ele>
        <time>2022-09-04T09:43:26.000Z</time>
      </trkpt>
      <trkpt lat="47.7582" lon="6.65324">
        <ele>461.6</ele>
        <time>2022-09-04T09:43:35.000Z</time>
      </trkpt>
      <trkpt lat="47.75823" lon="6.65278">
        <ele>460.9</ele>
        <time>2022-09-04T09:43:40.000Z</time>
      </trkpt>
      <trkpt lat="47.75837" lon="6.65237">
        <ele>460.9</ele>
        <time>2022-09-04T09:43:45.000Z</time>
      </trkpt>
      <trkpt lat="47.75884" lon="6.6515">
        <ele>462</ele>
        <time>2022-09-04T09:43:58.000Z</time>
      </trkpt>
      <trkpt lat="47.75903" lon="6.65101">
        <ele>462.2</ele>
        <time>2022-09-04T09:44:05.000Z</time>
      </trkpt>
      <trkpt lat="47.7591" lon="6.65056">
        <ele>463</ele>
        <time>2022-09-04T09:44:11.000Z</time>
      </trkpt>
      <trkpt lat="47.75912" lon="6.64955">
        <ele>464.7</ele>
        <time>2022-09-04T09:44:25.000Z</time>
      </trkpt>
      <trkpt lat="47.75926" lon="6.64892">
        <ele>466.3</ele>
        <time>2022-09-04T09:44:36.000Z</time>
      </trkpt>
      <trkpt lat="47.75955" lon="6.64829">
        <ele>470.9</ele>
        <time>2022-09-04T09:44:50.000Z</time>
      </trkpt>
      <trkpt lat="47.7602" lon="6.64741">
        <ele>472.6</ele>
        <time>2022-09-04T09:45:19.000Z</time>
      </trkpt>
      <trkpt lat="47.76104" lon="6.64663">
        <ele>468.8</ele>
        <time>2022-09-04T09:45:35.000Z</time>
      </trkpt>
      <trkpt lat="47.76178" lon="6.64576">
        <ele>464.6</ele>
        <time>2022-09-04T09:45:47.000Z</time>
      </trkpt>
      <trkpt lat="47.7627" lon="6.64521">
        <ele>465.1</ele>
        <time>2022-09-04T09:46:01.000Z</time>
      </trkpt>
      <trkpt lat="47.76334" lon="6.64461">
        <ele>465.4</ele>
        <time>2022-09-04T09:46:13.000Z</time>
      </trkpt>
      <trkpt lat="47.76363" lon="6.64419">
        <ele>462.3</ele>
        <time>2022-09-04T09:46:18.000Z</time>
      </trkpt>
      <trkpt lat="47.76371" lon="6.64397">
        <ele>462.6</ele>
        <time>2022-09-04T09:46:20.000Z</time>
      </trkpt>
      <trkpt lat="47.76376" lon="6.64372">
        <ele>460.7</ele>
        <time>2022-09-04T09:46:22.000Z</time>
      </trkpt>
      <trkpt lat="47.76376" lon="6.64347">
        <ele>458.8</ele>
        <time>2022-09-04T09:46:24.000Z</time>
      </trkpt>
      <trkpt lat="47.76369" lon="6.64311">
        <ele>458.5</ele>
        <time>2022-09-04T09:46:27.000Z</time>
      </trkpt>
      <trkpt lat="47.76328" lon="6.64225">
        <ele>457.8</ele>
        <time>2022-09-04T09:46:35.000Z</time>
      </trkpt>
      <trkpt lat="47.76314" lon="6.64177">
        <ele>456.6</ele>
        <time>2022-09-04T09:46:39.000Z</time>
      </trkpt>
      <trkpt lat="47.76293" lon="6.64042">
        <ele>455.1</ele>
        <time>2022-09-04T09:46:50.000Z</time>
      </trkpt>
      <trkpt lat="47.76282" lon="6.63999">
        <ele>455</ele>
        <time>2022-09-04T09:46:54.000Z</time>
      </trkpt>
      <trkpt lat="47.76258" lon="6.63957">
        <ele>455.1</ele>
        <time>2022-09-04T09:46:59.000Z</time>
      </trkpt>
      <trkpt lat="47.76197" lon="6.63894">
        <ele>455</ele>
        <time>2022-09-04T09:47:09.000Z</time>
      </trkpt>
      <trkpt lat="47.76173" lon="6.63853">
        <ele>455.1</ele>
        <time>2022-09-04T09:47:14.000Z</time>
      </trkpt>
      <trkpt lat="47.76145" lon="6.63757">
        <ele>451.2</ele>
        <time>2022-09-04T09:47:24.000Z</time>
      </trkpt>
      <trkpt lat="47.7609" lon="6.63666">
        <ele>449.7</ele>
        <time>2022-09-04T09:47:34.000Z</time>
      </trkpt>
      <trkpt lat="47.76076" lon="6.63633">
        <ele>446.7</ele>
        <time>2022-09-04T09:47:37.000Z</time>
      </trkpt>
      <trkpt lat="47.76061" lon="6.6357">
        <ele>444.2</ele>
        <time>2022-09-04T09:47:42.000Z</time>
      </trkpt>
      <trkpt lat="47.76057" lon="6.63501">
        <ele>440.4</ele>
        <time>2022-09-04T09:47:47.000Z</time>
      </trkpt>
      <trkpt lat="47.7606" lon="6.63431">
        <ele>436.7</ele>
        <time>2022-09-04T09:47:52.000Z</time>
      </trkpt>
      <trkpt lat="47.7607" lon="6.63364">
        <ele>435.1</ele>
        <time>2022-09-04T09:47:57.000Z</time>
      </trkpt>
      <trkpt lat="47.76085" lon="6.63315">
        <ele>435</ele>
        <time>2022-09-04T09:48:01.000Z</time>
      </trkpt>
      <trkpt lat="47.76101" lon="6.63291">
        <ele>435.2</ele>
        <time>2022-09-04T09:48:04.000Z</time>
      </trkpt>
      <trkpt lat="47.76121" lon="6.63286">
        <ele>434.4</ele>
        <time>2022-09-04T09:48:07.000Z</time>
      </trkpt>
      <trkpt lat="47.76141" lon="6.63298">
        <ele>432.6</ele>
        <time>2022-09-04T09:48:10.000Z</time>
      </trkpt>
      <trkpt lat="47.76197" lon="6.63386">
        <ele>426.5</ele>
        <time>2022-09-04T09:48:21.000Z</time>
      </trkpt>
      <trkpt lat="47.76205" lon="6.63391">
        <ele>425.6</ele>
        <time>2022-09-04T09:48:25.000Z</time>
      </trkpt>
      <trkpt lat="47.76226" lon="6.633">
        <ele>419.1</ele>
        <time>2022-09-04T09:48:40.000Z</time>
      </trkpt>
      <trkpt lat="47.76237" lon="6.63189">
        <ele>413.3</ele>
        <time>2022-09-04T09:48:52.000Z</time>
      </trkpt>
      <trkpt lat="47.76248" lon="6.63145">
        <ele>412.1</ele>
        <time>2022-09-04T09:48:58.000Z</time>
      </trkpt>
      <trkpt lat="47.7626" lon="6.63123">
        <ele>410.5</ele>
        <time>2022-09-04T09:49:03.000Z</time>
      </trkpt>
      <trkpt lat="47.7635" lon="6.62994">
        <ele>405.6</ele>
        <time>2022-09-04T09:49:26.000Z</time>
      </trkpt>
      <trkpt lat="47.76359" lon="6.62972">
        <ele>405.8</ele>
        <time>2022-09-04T09:49:31.000Z</time>
      </trkpt>
      <trkpt lat="47.76363" lon="6.62948">
        <ele>405.3</ele>
        <time>2022-09-04T09:49:36.000Z</time>
      </trkpt>
      <trkpt lat="47.76367" lon="6.62882">
        <ele>406.3</ele>
        <time>2022-09-04T09:49:49.000Z</time>
      </trkpt>
      <trkpt lat="47.7635" lon="6.62768">
        <ele>399.6</ele>
        <time>2022-09-04T09:50:05.000Z</time>
      </trkpt>
      <trkpt lat="47.76365" lon="6.62678">
        <ele>391.6</ele>
        <time>2022-09-04T09:50:16.000Z</time>
      </trkpt>
      <trkpt lat="47.76367" lon="6.62646">
        <ele>390</ele>
        <time>2022-09-04T09:50:19.000Z</time>
      </trkpt>
      <trkpt lat="47.76364" lon="6.62529">
        <ele>392.2</ele>
        <time>2022-09-04T09:50:31.000Z</time>
      </trkpt>
      <trkpt lat="47.76355" lon="6.62394">
        <ele>388</ele>
        <time>2022-09-04T09:50:44.000Z</time>
      </trkpt>
      <trkpt lat="47.76354" lon="6.6232">
        <ele>385.8</ele>
        <time>2022-09-04T09:50:51.000Z</time>
      </trkpt>
      <trkpt lat="47.76369" lon="6.62165">
        <ele>379.6</ele>
        <time>2022-09-04T09:51:06.000Z</time>
      </trkpt>
      <trkpt lat="47.76369" lon="6.62093">
        <ele>377.4</ele>
        <time>2022-09-04T09:51:12.000Z</time>
      </trkpt>
      <trkpt lat="47.76358" lon="6.61997">
        <ele>375.2</ele>
        <time>2022-09-04T09:51:21.000Z</time>
      </trkpt>
      <trkpt lat="47.76354" lon="6.61885">
        <ele>365.6</ele>
        <time>2022-09-04T09:51:31.000Z</time>
      </trkpt>
      <trkpt lat="47.76349" lon="6.61847">
        <ele>361.9</ele>
        <time>2022-09-04T09:51:36.000Z</time>
      </trkpt>
      <trkpt lat="47.7634" lon="6.61823">
        <ele>359.4</ele>
        <time>2022-09-04T09:51:40.000Z</time>
      </trkpt>
      <trkpt lat="47.76315" lon="6.61806">
        <ele>359.1</ele>
        <time>2022-09-04T09:51:48.000Z</time>
      </trkpt>
      <trkpt lat="47.76307" lon="6.61796">
        <ele>357.1</ele>
        <time>2022-09-04T09:51:51.000Z</time>
      </trkpt>
      <trkpt lat="47.76299" lon="6.61777">
        <ele>353.1</ele>
        <time>2022-09-04T09:51:55.000Z</time>
      </trkpt>
      <trkpt lat="47.76298" lon="6.61758">
        <ele>351.4</ele>
        <time>2022-09-04T09:51:58.000Z</time>
      </trkpt>
      <trkpt lat="47.76302" lon="6.61731">
        <ele>348.2</ele>
        <time>2022-09-04T09:52:02.000Z</time>
      </trkpt>
      <trkpt lat="47.76315" lon="6.61698">
        <ele>346.1</ele>
        <time>2022-09-04T09:52:08.000Z</time>
      </trkpt>
      <trkpt lat="47.76318" lon="6.61681">
        <ele>345.5</ele>
        <time>2022-09-04T09:52:11.000Z</time>
      </trkpt>
      <trkpt lat="47.76304" lon="6.6158">
        <ele>342.9</ele>
        <time>2022-09-04T09:52:23.000Z</time>
      </trkpt>
      <trkpt lat="47.76301" lon="6.61531">
        <ele>342</ele>
        <time>2022-09-04T09:52:28.000Z</time>
      </trkpt>
      <trkpt lat="47.76306" lon="6.61392">
        <ele>341</ele>
        <time>2022-09-04T09:52:42.000Z</time>
      </trkpt>
      <trkpt lat="47.76312" lon="6.61322">
        <ele>340.8</ele>
        <time>2022-09-04T09:52:49.000Z</time>
      </trkpt>
      <trkpt lat="47.76327" lon="6.61255">
        <ele>339.2</ele>
        <time>2022-09-04T09:52:56.000Z</time>
      </trkpt>
      <trkpt lat="47.76369" lon="6.61159">
        <ele>338.7</ele>
        <time>2022-09-04T09:53:07.000Z</time>
      </trkpt>
      <trkpt lat="47.76381" lon="6.61121">
        <ele>338.6</ele>
        <time>2022-09-04T09:53:11.000Z</time>
      </trkpt>
      <trkpt lat="47.76387" lon="6.61068">
        <ele>338.9</ele>
        <time>2022-09-04T09:53:16.000Z</time>
      </trkpt>
      <trkpt lat="47.76384" lon="6.61002">
        <ele>338.8</ele>
        <time>2022-09-04T09:53:22.000Z</time>
      </trkpt>
      <trkpt lat="47.76377" lon="6.60973">
        <ele>338</ele>
        <time>2022-09-04T09:53:25.000Z</time>
      </trkpt>
      <trkpt lat="47.76365" lon="6.60947">
        <ele>338</ele>
        <time>2022-09-04T09:53:28.000Z</time>
      </trkpt>
      <trkpt lat="47.76316" lon="6.60882">
        <ele>338.1</ele>
        <time>2022-09-04T09:53:38.000Z</time>
      </trkpt>
      <trkpt lat="47.76293" lon="6.60834">
        <ele>337.9</ele>
        <time>2022-09-04T09:53:54.000Z</time>
      </trkpt>
      <trkpt lat="47.76279" lon="6.60834">
        <ele>338.9</ele>
        <time>2022-09-04T09:54:00.000Z</time>
      </trkpt>
      <trkpt lat="47.76238" lon="6.60863">
        <ele>338.9</ele>
        <time>2022-09-04T09:54:10.000Z</time>
      </trkpt>
      <trkpt lat="47.76209" lon="6.60874">
        <ele>339.3</ele>
        <time>2022-09-04T09:54:16.000Z</time>
      </trkpt>
      <trkpt lat="47.76178" lon="6.60873">
        <ele>339.6</ele>
        <time>2022-09-04T09:54:22.000Z</time>
      </trkpt>
      <trkpt lat="47.76133" lon="6.60859">
        <ele>339</ele>
        <time>2022-09-04T09:54:30.000Z</time>
      </trkpt>
      <trkpt lat="47.76086" lon="6.60837">
        <ele>339</ele>
        <time>2022-09-04T09:54:38.000Z</time>
      </trkpt>
      <trkpt lat="47.76046" lon="6.6081">
        <ele>338.7</ele>
        <time>2022-09-04T09:54:45.000Z</time>
      </trkpt>
      <trkpt lat="47.75897" lon="6.60678">
        <ele>338.9</ele>
        <time>2022-09-04T09:55:12.000Z</time>
      </trkpt>
      <trkpt lat="47.75871" lon="6.60646">
        <ele>337.4</ele>
        <time>2022-09-04T09:55:17.000Z</time>
      </trkpt>
      <trkpt lat="47.75847" lon="6.60608">
        <ele>335.1</ele>
        <time>2022-09-04T09:55:22.000Z</time>
      </trkpt>
      <trkpt lat="47.75742" lon="6.60416">
        <ele>335.4</ele>
        <time>2022-09-04T09:55:44.000Z</time>
      </trkpt>
      <trkpt lat="47.75707" lon="6.60341">
        <ele>335</ele>
        <time>2022-09-04T09:55:52.000Z</time>
      </trkpt>
      <trkpt lat="47.75664" lon="6.60225">
        <ele>334.8</ele>
        <time>2022-09-04T09:56:04.000Z</time>
      </trkpt>
      <trkpt lat="47.75652" lon="6.60186">
        <ele>334.5</ele>
        <time>2022-09-04T09:56:08.000Z</time>
      </trkpt>
      <trkpt lat="47.75644" lon="6.60146">
        <ele>335.7</ele>
        <time>2022-09-04T09:56:12.000Z</time>
      </trkpt>
      <trkpt lat="47.75639" lon="6.60008">
        <ele>334.1</ele>
        <time>2022-09-04T09:56:25.000Z</time>
      </trkpt>
      <trkpt lat="47.7563" lon="6.59942">
        <ele>333.3</ele>
        <time>2022-09-04T09:56:31.000Z</time>
      </trkpt>
      <trkpt lat="47.75524" lon="6.5958">
        <ele>332.9</ele>
        <time>2022-09-04T09:57:07.000Z</time>
      </trkpt>
      <trkpt lat="47.75514" lon="6.59541">
        <ele>332.5</ele>
        <time>2022-09-04T09:57:11.000Z</time>
      </trkpt>
      <trkpt lat="47.75507" lon="6.59489">
        <ele>332.8</ele>
        <time>2022-09-04T09:57:16.000Z</time>
      </trkpt>
      <trkpt lat="47.755" lon="6.59397">
        <ele>333</ele>
        <time>2022-09-04T09:57:25.000Z</time>
      </trkpt>
      <trkpt lat="47.7549" lon="6.59104">
        <ele>332.6</ele>
        <time>2022-09-04T09:57:54.000Z</time>
      </trkpt>
      <trkpt lat="47.75491" lon="6.59032">
        <ele>332.9</ele>
        <time>2022-09-04T09:58:02.000Z</time>
      </trkpt>
      <trkpt lat="47.75495" lon="6.58946">
        <ele>336.3</ele>
        <time>2022-09-04T09:58:13.000Z</time>
      </trkpt>
      <trkpt lat="47.75494" lon="6.58901">
        <ele>334.8</ele>
        <time>2022-09-04T09:58:19.000Z</time>
      </trkpt>
      <trkpt lat="47.75458" lon="6.58595">
        <ele>329.3</ele>
        <time>2022-09-04T09:58:52.000Z</time>
      </trkpt>
      <trkpt lat="47.75437" lon="6.58242">
        <ele>331.3</ele>
        <time>2022-09-04T09:59:29.000Z</time>
      </trkpt>
      <trkpt lat="47.75433" lon="6.58216">
        <ele>331.2</ele>
        <time>2022-09-04T09:59:32.000Z</time>
      </trkpt>
      <trkpt lat="47.75419" lon="6.58183">
        <ele>330.9</ele>
        <time>2022-09-04T09:59:36.000Z</time>
      </trkpt>
      <trkpt lat="47.75401" lon="6.58169">
        <ele>332.2</ele>
        <time>2022-09-04T09:59:39.000Z</time>
      </trkpt>
      <trkpt lat="47.75384" lon="6.58168">
        <ele>332.8</ele>
        <time>2022-09-04T09:59:44.000Z</time>
      </trkpt>
      <trkpt lat="47.7535" lon="6.58201">
        <ele>331.8</ele>
        <time>2022-09-04T09:59:52.000Z</time>
      </trkpt>
      <trkpt lat="47.75285" lon="6.58224">
        <ele>328</ele>
        <time>2022-09-04T10:00:02.000Z</time>
      </trkpt>
      <trkpt lat="47.75266" lon="6.58238">
        <ele>328</ele>
        <time>2022-09-04T10:00:05.000Z</time>
      </trkpt>
      <trkpt lat="47.75229" lon="6.58274">
        <ele>328</ele>
        <time>2022-09-04T10:00:11.000Z</time>
      </trkpt>
      <trkpt lat="47.75194" lon="6.58292">
        <ele>328</ele>
        <time>2022-09-04T10:00:16.000Z</time>
      </trkpt>
      <trkpt lat="47.75115" lon="6.58303">
        <ele>326.9</ele>
        <time>2022-09-04T10:00:28.000Z</time>
      </trkpt>
      <trkpt lat="47.75022" lon="6.58308">
        <ele>331.8</ele>
        <time>2022-09-04T10:00:44.000Z</time>
      </trkpt>
      <trkpt lat="47.74988" lon="6.58319">
        <ele>331.2</ele>
        <time>2022-09-04T10:00:50.000Z</time>
      </trkpt>
      <trkpt lat="47.74824" lon="6.58439">
        <ele>330.6</ele>
        <time>2022-09-04T10:01:21.000Z</time>
      </trkpt>
      <trkpt lat="47.74676" lon="6.58555">
        <ele>330.7</ele>
        <time>2022-09-04T10:01:47.000Z</time>
      </trkpt>
      <trkpt lat="47.74576" lon="6.58626">
        <ele>330.1</ele>
        <time>2022-09-04T10:02:04.000Z</time>
      </trkpt>
      <trkpt lat="47.74464" lon="6.58675">
        <ele>331</ele>
        <time>2022-09-04T10:02:23.000Z</time>
      </trkpt>
      <trkpt lat="47.74421" lon="6.58688">
        <ele>331</ele>
        <time>2022-09-04T10:03:01.000Z</time>
      </trkpt>
      <trkpt lat="47.74422" lon="6.58683">
        <ele>331</ele>
        <time>2022-09-04T10:03:15.000Z</time>
      </trkpt>
      <trkpt lat="47.74421" lon="6.58686">
        <ele>331</ele>
        <time>2022-09-04T10:03:31.000Z</time>
      </trkpt>
      <trkpt lat="47.7439" lon="6.58703">
        <ele>331</ele>
        <time>2022-09-04T10:04:17.000Z</time>
      </trkpt>
      <trkpt lat="47.74246" lon="6.58761">
        <ele>331.1</ele>
        <time>2022-09-04T10:04:49.000Z</time>
      </trkpt>
      <trkpt lat="47.74203" lon="6.58771">
        <ele>333.8</ele>
        <time>2022-09-04T10:04:58.000Z</time>
      </trkpt>
      <trkpt lat="47.74172" lon="6.58772">
        <ele>337.4</ele>
        <time>2022-09-04T10:05:05.000Z</time>
      </trkpt>
      <trkpt lat="47.74115" lon="6.58751">
        <ele>339.8</ele>
        <time>2022-09-04T10:05:21.000Z</time>
      </trkpt>
      <trkpt lat="47.74061" lon="6.58725">
        <ele>342.8</ele>
        <time>2022-09-04T10:05:40.000Z</time>
      </trkpt>
      <trkpt lat="47.74008" lon="6.58713">
        <ele>344.9</ele>
        <time>2022-09-04T10:05:57.000Z</time>
      </trkpt>
      <trkpt lat="47.73968" lon="6.58696">
        <ele>346.2</ele>
        <time>2022-09-04T10:06:10.000Z</time>
      </trkpt>
      <trkpt lat="47.73911" lon="6.5869">
        <ele>348.2</ele>
        <time>2022-09-04T10:06:26.000Z</time>
      </trkpt>
      <trkpt lat="47.73835" lon="6.58691">
        <ele>350</ele>
        <time>2022-09-04T10:06:45.000Z</time>
      </trkpt>
      <trkpt lat="47.73738" lon="6.58704">
        <ele>349.3</ele>
        <time>2022-09-04T10:07:04.000Z</time>
      </trkpt>
      <trkpt lat="47.73652" lon="6.58733">
        <ele>352.7</ele>
        <time>2022-09-04T10:07:19.000Z</time>
      </trkpt>
      <trkpt lat="47.73416" lon="6.58793">
        <ele>352.5</ele>
        <time>2022-09-04T10:08:00.000Z</time>
      </trkpt>
      <trkpt lat="47.73355" lon="6.58797">
        <ele>350.1</ele>
        <time>2022-09-04T10:08:08.000Z</time>
      </trkpt>
      <trkpt lat="47.73307" lon="6.58789">
        <ele>348.1</ele>
        <time>2022-09-04T10:08:14.000Z</time>
      </trkpt>
      <trkpt lat="47.73244" lon="6.58771">
        <ele>343.8</ele>
        <time>2022-09-04T10:08:21.000Z</time>
      </trkpt>
      <trkpt lat="47.73168" lon="6.58737">
        <ele>342</ele>
        <time>2022-09-04T10:08:29.000Z</time>
      </trkpt>
      <trkpt lat="47.73024" lon="6.58634">
        <ele>340.9</ele>
        <time>2022-09-04T10:08:47.000Z</time>
      </trkpt>
      <trkpt lat="47.72802" lon="6.58462">
        <ele>336.5</ele>
        <time>2022-09-04T10:09:18.000Z</time>
      </trkpt>
      <trkpt lat="47.72737" lon="6.58421">
        <ele>336</ele>
        <time>2022-09-04T10:09:27.000Z</time>
      </trkpt>
      <trkpt lat="47.72317" lon="6.58239">
        <ele>329</ele>
        <time>2022-09-04T10:10:23.000Z</time>
      </trkpt>
      <trkpt lat="47.7204" lon="6.58078">
        <ele>329</ele>
        <time>2022-09-04T10:11:05.000Z</time>
      </trkpt>
      <trkpt lat="47.71779" lon="6.57984">
        <ele>327</ele>
        <time>2022-09-04T10:11:48.000Z</time>
      </trkpt>
      <trkpt lat="47.71745" lon="6.57963">
        <ele>326.7</ele>
        <time>2022-09-04T10:11:54.000Z</time>
      </trkpt>
      <trkpt lat="47.71649" lon="6.5788">
        <ele>325.2</ele>
        <time>2022-09-04T10:12:11.000Z</time>
      </trkpt>
      <trkpt lat="47.7162" lon="6.5786">
        <ele>325</ele>
        <time>2022-09-04T10:12:16.000Z</time>
      </trkpt>
      <trkpt lat="47.71576" lon="6.57847">
        <ele>325</ele>
        <time>2022-09-04T10:12:23.000Z</time>
      </trkpt>
      <trkpt lat="47.71524" lon="6.57843">
        <ele>324.6</ele>
        <time>2022-09-04T10:12:31.000Z</time>
      </trkpt>
      <trkpt lat="47.71488" lon="6.57852">
        <ele>324</ele>
        <time>2022-09-04T10:12:37.000Z</time>
      </trkpt>
      <trkpt lat="47.71436" lon="6.57878">
        <ele>324</ele>
        <time>2022-09-04T10:12:47.000Z</time>
      </trkpt>
      <trkpt lat="47.71414" lon="6.57879">
        <ele>323.9</ele>
        <time>2022-09-04T10:12:51.000Z</time>
      </trkpt>
      <trkpt lat="47.71385" lon="6.57869">
        <ele>323.6</ele>
        <time>2022-09-04T10:12:56.000Z</time>
      </trkpt>
      <trkpt lat="47.71283" lon="6.57818">
        <ele>322</ele>
        <time>2022-09-04T10:13:12.000Z</time>
      </trkpt>
      <trkpt lat="47.71265" lon="6.57814">
        <ele>322</ele>
        <time>2022-09-04T10:13:15.000Z</time>
      </trkpt>
      <trkpt lat="47.71254" lon="6.57816">
        <ele>322</ele>
        <time>2022-09-04T10:13:17.000Z</time>
      </trkpt>
      <trkpt lat="47.7124" lon="6.57829">
        <ele>322</ele>
        <time>2022-09-04T10:13:20.000Z</time>
      </trkpt>
      <trkpt lat="47.71228" lon="6.57851">
        <ele>322</ele>
        <time>2022-09-04T10:13:23.000Z</time>
      </trkpt>
      <trkpt lat="47.712" lon="6.57954">
        <ele>322</ele>
        <time>2022-09-04T10:13:34.000Z</time>
      </trkpt>
      <trkpt lat="47.7115" lon="6.58085">
        <ele>321.6</ele>
        <time>2022-09-04T10:13:49.000Z</time>
      </trkpt>
      <trkpt lat="47.71072" lon="6.58353">
        <ele>322.3</ele>
        <time>2022-09-04T10:14:19.000Z</time>
      </trkpt>
      <trkpt lat="47.70977" lon="6.58709">
        <ele>322</ele>
        <time>2022-09-04T10:14:59.000Z</time>
      </trkpt>
      <trkpt lat="47.70912" lon="6.58934">
        <ele>323.9</ele>
        <time>2022-09-04T10:15:29.000Z</time>
      </trkpt>
      <trkpt lat="47.70899" lon="6.58973">
        <ele>324.7</ele>
        <time>2022-09-04T10:15:35.000Z</time>
      </trkpt>
      <trkpt lat="47.70871" lon="6.59031">
        <ele>326.7</ele>
        <time>2022-09-04T10:15:45.000Z</time>
      </trkpt>
      <trkpt lat="47.70696" lon="6.59305">
        <ele>343.1</ele>
        <time>2022-09-04T10:17:08.000Z</time>
      </trkpt>
      <trkpt lat="47.70674" lon="6.59329">
        <ele>345</ele>
        <time>2022-09-04T10:17:18.000Z</time>
      </trkpt>
      <trkpt lat="47.7064" lon="6.59349">
        <ele>347.5</ele>
        <time>2022-09-04T10:17:30.000Z</time>
      </trkpt>
      <trkpt lat="47.70534" lon="6.59375">
        <ele>349.5</ele>
        <time>2022-09-04T10:17:59.000Z</time>
      </trkpt>
      <trkpt lat="47.70367" lon="6.59389">
        <ele>350</ele>
        <time>2022-09-04T10:18:33.000Z</time>
      </trkpt>
      <trkpt lat="47.70288" lon="6.59379">
        <ele>349</ele>
        <time>2022-09-04T10:18:47.000Z</time>
      </trkpt>
      <trkpt lat="47.70241" lon="6.59389">
        <ele>348.7</ele>
        <time>2022-09-04T10:18:54.000Z</time>
      </trkpt>
      <trkpt lat="47.70185" lon="6.59416">
        <ele>346.7</ele>
        <time>2022-09-04T10:19:02.000Z</time>
      </trkpt>
      <trkpt lat="47.70145" lon="6.59451">
        <ele>344.5</ele>
        <time>2022-09-04T10:19:08.000Z</time>
      </trkpt>
      <trkpt lat="47.70124" lon="6.59487">
        <ele>343.3</ele>
        <time>2022-09-04T10:19:12.000Z</time>
      </trkpt>
      <trkpt lat="47.70095" lon="6.5956">
        <ele>342.4</ele>
        <time>2022-09-04T10:19:19.000Z</time>
      </trkpt>
      <trkpt lat="47.70073" lon="6.59588">
        <ele>341.8</ele>
        <time>2022-09-04T10:19:23.000Z</time>
      </trkpt>
      <trkpt lat="47.70059" lon="6.59595">
        <ele>341.6</ele>
        <time>2022-09-04T10:19:25.000Z</time>
      </trkpt>
      <trkpt lat="47.70037" lon="6.59596">
        <ele>340.6</ele>
        <time>2022-09-04T10:19:28.000Z</time>
      </trkpt>
      <trkpt lat="47.69977" lon="6.5956">
        <ele>335.4</ele>
        <time>2022-09-04T10:19:37.000Z</time>
      </trkpt>
      <trkpt lat="47.69967" lon="6.59564">
        <ele>333.9</ele>
        <time>2022-09-04T10:19:39.000Z</time>
      </trkpt>
      <trkpt lat="47.69959" lon="6.59577">
        <ele>332.3</ele>
        <time>2022-09-04T10:19:41.000Z</time>
      </trkpt>
      <trkpt lat="47.6994" lon="6.59678">
        <ele>329.2</ele>
        <time>2022-09-04T10:19:50.000Z</time>
      </trkpt>
      <trkpt lat="47.69929" lon="6.59698">
        <ele>329.2</ele>
        <time>2022-09-04T10:19:53.000Z</time>
      </trkpt>
      <trkpt lat="47.6991" lon="6.59716">
        <ele>328.7</ele>
        <time>2022-09-04T10:19:59.000Z</time>
      </trkpt>
      <trkpt lat="47.69906" lon="6.59725">
        <ele>329</ele>
        <time>2022-09-04T10:20:02.000Z</time>
      </trkpt>
      <trkpt lat="47.69904" lon="6.59815">
        <ele>331.1</ele>
        <time>2022-09-04T10:20:15.000Z</time>
      </trkpt>
      <trkpt lat="47.69908" lon="6.59863">
        <ele>329.4</ele>
        <time>2022-09-04T10:20:20.000Z</time>
      </trkpt>
      <trkpt lat="47.69925" lon="6.5998">
        <ele>331.6</ele>
        <time>2022-09-04T10:20:32.000Z</time>
      </trkpt>
      <trkpt lat="47.69981" lon="6.6028">
        <ele>327.3</ele>
        <time>2022-09-04T10:21:04.000Z</time>
      </trkpt>
      <trkpt lat="47.69987" lon="6.60349">
        <ele>327.8</ele>
        <time>2022-09-04T10:21:11.000Z</time>
      </trkpt>
      <trkpt lat="47.69988" lon="6.60406">
        <ele>329</ele>
        <time>2022-09-04T10:21:17.000Z</time>
      </trkpt>
      <trkpt lat="47.69984" lon="6.60453">
        <ele>329.1</ele>
        <time>2022-09-04T10:21:22.000Z</time>
      </trkpt>
      <trkpt lat="47.69976" lon="6.60497">
        <ele>330.9</ele>
        <time>2022-09-04T10:21:27.000Z</time>
      </trkpt>
      <trkpt lat="47.69926" lon="6.6066">
        <ele>332.8</ele>
        <time>2022-09-04T10:21:47.000Z</time>
      </trkpt>
      <trkpt lat="47.69917" lon="6.60677">
        <ele>333.4</ele>
        <time>2022-09-04T10:21:50.000Z</time>
      </trkpt>
      <trkpt lat="47.69906" lon="6.6069">
        <ele>333.1</ele>
        <time>2022-09-04T10:21:53.000Z</time>
      </trkpt>
      <trkpt lat="47.69862" lon="6.60707">
        <ele>331.5</ele>
        <time>2022-09-04T10:22:01.000Z</time>
      </trkpt>
      <trkpt lat="47.69824" lon="6.60712">
        <ele>330</ele>
        <time>2022-09-04T10:22:07.000Z</time>
      </trkpt>
      <trkpt lat="47.69737" lon="6.60709">
        <ele>330</ele>
        <time>2022-09-04T10:22:21.000Z</time>
      </trkpt>
      <trkpt lat="47.69682" lon="6.60715">
        <ele>329.9</ele>
        <time>2022-09-04T10:22:30.000Z</time>
      </trkpt>
      <trkpt lat="47.6958" lon="6.60734">
        <ele>329.4</ele>
        <time>2022-09-04T10:22:48.000Z</time>
      </trkpt>
      <trkpt lat="47.69561" lon="6.60746">
        <ele>329.2</ele>
        <time>2022-09-04T10:22:52.000Z</time>
      </trkpt>
      <trkpt lat="47.69554" lon="6.60763">
        <ele>329</ele>
        <time>2022-09-04T10:22:55.000Z</time>
      </trkpt>
      <trkpt lat="47.69556" lon="6.60802">
        <ele>329</ele>
        <time>2022-09-04T10:23:00.000Z</time>
      </trkpt>
      <trkpt lat="47.69578" lon="6.60913">
        <ele>329.8</ele>
        <time>2022-09-04T10:23:15.000Z</time>
      </trkpt>
      <trkpt lat="47.69611" lon="6.60994">
        <ele>331</ele>
        <time>2022-09-04T10:23:30.000Z</time>
      </trkpt>
      <trkpt lat="47.69638" lon="6.61087">
        <ele>331.1</ele>
        <time>2022-09-04T10:23:44.000Z</time>
      </trkpt>
      <trkpt lat="47.69664" lon="6.6126">
        <ele>332</ele>
        <time>2022-09-04T10:24:11.000Z</time>
      </trkpt>
      <trkpt lat="47.69672" lon="6.61273">
        <ele>332.1</ele>
        <time>2022-09-04T10:24:17.000Z</time>
      </trkpt>
      <trkpt lat="47.69688" lon="6.61277">
        <ele>332.7</ele>
        <time>2022-09-04T10:24:32.000Z</time>
      </trkpt>
    </trkseg>
  </trk>
</gpx>